<?xml version="1.0" encoding="UTF-8"?>
<gpx creator="Garmin Connect" version="1.1"
  xsi:schemaLocation="http://www.topografix.com/GPX/1/1 http://www.topografix.com/GPX/11.xsd"
  xmlns="http://www.topografix.com/GPX/1/1"
  xmlns:ns3="http://www.garmin.com/xmlschemas/TrackPointExtension/v1"
  xmlns:ns2="http://www.garmin.com/xmlschemas/GpxExtensions/v3" xmlns:xsi="http://www.w3.org/2001/XMLSchema-instance">
  <metadata>
    <link href="connect.garmin.com">
      <text>Garmin Connect</text>
    </link>
    <time>2017-06-02T07:16:33.000Z</time>
  </metadata>
  <trk>
    <name>Joch Cyclisme 2017-44</name>
    <desc>Col de "La Palomère"</desc>
    <type>cycling</type>
    <trkseg>
      <trkpt lat="42.6228532008826732635498046875" lon="2.52358250319957733154296875">
        <ele>335.600006103515625</ele>
        <time>2017-06-02T07:16:33.000Z</time>
        <extensions>
          <ns3:TrackPointExtension/>
        </extensions>
      </trkpt>
      <trkpt lat="42.6228532008826732635498046875" lon="2.52358250319957733154296875">
        <ele>335.600006103515625</ele>
        <time>2017-06-02T07:16:34.000Z</time>
        <extensions>
          <ns3:TrackPointExtension/>
        </extensions>
      </trkpt>
      <trkpt lat="42.62290709652006626129150390625" lon="2.5235952436923980712890625">
        <ele>335.20001220703125</ele>
        <time>2017-06-02T07:17:08.000Z</time>
        <extensions>
          <ns3:TrackPointExtension/>
        </extensions>
      </trkpt>
      <trkpt lat="42.6229909993708133697509765625" lon="2.52355174161493778228759765625">
        <ele>335</ele>
        <time>2017-06-02T07:17:13.000Z</time>
        <extensions>
          <ns3:TrackPointExtension/>
        </extensions>
      </trkpt>
      <trkpt lat="42.62285563163459300994873046875" lon="2.5229164771735668182373046875">
        <ele>335.20001220703125</ele>
        <time>2017-06-02T07:17:34.000Z</time>
        <extensions>
          <ns3:TrackPointExtension/>
        </extensions>
      </trkpt>
      <trkpt lat="42.622582800686359405517578125" lon="2.5222407281398773193359375">
        <ele>336.399993896484375</ele>
        <time>2017-06-02T07:17:53.000Z</time>
        <extensions>
          <ns3:TrackPointExtension/>
        </extensions>
      </trkpt>
      <trkpt lat="42.622560001909732818603515625" lon="2.52151896245777606964111328125">
        <ele>337.79998779296875</ele>
        <time>2017-06-02T07:18:10.000Z</time>
        <extensions>
          <ns3:TrackPointExtension/>
        </extensions>
      </trkpt>
      <trkpt lat="42.62255639769136905670166015625" lon="2.52075009047985076904296875">
        <ele>337.79998779296875</ele>
        <time>2017-06-02T07:18:26.000Z</time>
        <extensions>
          <ns3:TrackPointExtension/>
        </extensions>
      </trkpt>
      <trkpt lat="42.6225454173982143402099609375" lon="2.52000988461077213287353515625">
        <ele>337.79998779296875</ele>
        <time>2017-06-02T07:18:39.000Z</time>
        <extensions>
          <ns3:TrackPointExtension/>
        </extensions>
      </trkpt>
      <trkpt lat="42.62256243266165256500244140625" lon="2.51921586692333221435546875">
        <ele>338.79998779296875</ele>
        <time>2017-06-02T07:18:52.000Z</time>
        <extensions>
          <ns3:TrackPointExtension/>
        </extensions>
      </trkpt>
      <trkpt lat="42.62255388312041759490966796875" lon="2.518508434295654296875">
        <ele>338.79998779296875</ele>
        <time>2017-06-02T07:19:03.000Z</time>
        <extensions>
          <ns3:TrackPointExtension/>
        </extensions>
      </trkpt>
      <trkpt lat="42.62229672633111476898193359375" lon="2.51844070851802825927734375">
        <ele>339.79998779296875</ele>
        <time>2017-06-02T07:19:10.000Z</time>
        <extensions>
          <ns3:TrackPointExtension/>
        </extensions>
      </trkpt>
      <trkpt lat="42.62177319265902042388916015625" lon="2.518647573888301849365234375">
        <ele>341.399993896484375</ele>
        <time>2017-06-02T07:19:24.000Z</time>
        <extensions>
          <ns3:TrackPointExtension/>
        </extensions>
      </trkpt>
      <trkpt lat="42.62122451327741146087646484375" lon="2.51881227828562259674072265625">
        <ele>343.20001220703125</ele>
        <time>2017-06-02T07:19:39.000Z</time>
        <extensions>
          <ns3:TrackPointExtension/>
        </extensions>
      </trkpt>
      <trkpt lat="42.6206591539084911346435546875" lon="2.51882317475974559783935546875">
        <ele>345.399993896484375</ele>
        <time>2017-06-02T07:19:55.000Z</time>
        <extensions>
          <ns3:TrackPointExtension/>
        </extensions>
      </trkpt>
      <trkpt lat="42.62009010650217533111572265625" lon="2.5188395194709300994873046875">
        <ele>347.399993896484375</ele>
        <time>2017-06-02T07:20:12.000Z</time>
        <extensions>
          <ns3:TrackPointExtension/>
        </extensions>
      </trkpt>
      <trkpt lat="42.61953941546380519866943359375" lon="2.5188452191650867462158203125">
        <ele>350.600006103515625</ele>
        <time>2017-06-02T07:20:29.000Z</time>
        <extensions>
          <ns3:TrackPointExtension/>
        </extensions>
      </trkpt>
      <trkpt lat="42.61899895034730434417724609375" lon="2.51886676065623760223388671875">
        <ele>354.399993896484375</ele>
        <time>2017-06-02T07:20:47.000Z</time>
        <extensions>
          <ns3:TrackPointExtension/>
        </extensions>
      </trkpt>
      <trkpt lat="42.61845831759274005889892578125" lon="2.5189297087490558624267578125">
        <ele>357.79998779296875</ele>
        <time>2017-06-02T07:21:06.000Z</time>
        <extensions>
          <ns3:TrackPointExtension/>
        </extensions>
      </trkpt>
      <trkpt lat="42.61793042533099651336669921875" lon="2.5189380906522274017333984375">
        <ele>361</ele>
        <time>2017-06-02T07:21:26.000Z</time>
        <extensions>
          <ns3:TrackPointExtension/>
        </extensions>
      </trkpt>
      <trkpt lat="42.61751702986657619476318359375" lon="2.5184588134288787841796875">
        <ele>362.399993896484375</ele>
        <time>2017-06-02T07:21:45.000Z</time>
        <extensions>
          <ns3:TrackPointExtension/>
        </extensions>
      </trkpt>
      <trkpt lat="42.617090977728366851806640625" lon="2.5179778598248958587646484375">
        <ele>364.399993896484375</ele>
        <time>2017-06-02T07:22:05.000Z</time>
        <extensions>
          <ns3:TrackPointExtension/>
        </extensions>
      </trkpt>
      <trkpt lat="42.61664212681353092193603515625" lon="2.517533786594867706298828125">
        <ele>366.600006103515625</ele>
        <time>2017-06-02T07:22:25.000Z</time>
        <extensions>
          <ns3:TrackPointExtension/>
        </extensions>
      </trkpt>
      <trkpt lat="42.6161265559494495391845703125" lon="2.517254166305065155029296875">
        <ele>369.79998779296875</ele>
        <time>2017-06-02T07:22:45.000Z</time>
        <extensions>
          <ns3:TrackPointExtension/>
        </extensions>
      </trkpt>
      <trkpt lat="42.61558198370039463043212890625" lon="2.51719322986900806427001953125">
        <ele>373.79998779296875</ele>
        <time>2017-06-02T07:23:05.000Z</time>
        <extensions>
          <ns3:TrackPointExtension/>
        </extensions>
      </trkpt>
      <trkpt lat="42.6150312088429927825927734375" lon="2.5173054635524749755859375">
        <ele>377.79998779296875</ele>
        <time>2017-06-02T07:23:26.000Z</time>
        <extensions>
          <ns3:TrackPointExtension/>
        </extensions>
      </trkpt>
      <trkpt lat="42.614475153386592864990234375" lon="2.51744468696415424346923828125">
        <ele>380.600006103515625</ele>
        <time>2017-06-02T07:23:48.000Z</time>
        <extensions>
          <ns3:TrackPointExtension/>
        </extensions>
      </trkpt>
      <trkpt lat="42.6139429025352001190185546875" lon="2.5175829045474529266357421875">
        <ele>385.600006103515625</ele>
        <time>2017-06-02T07:24:11.000Z</time>
        <extensions>
          <ns3:TrackPointExtension/>
        </extensions>
      </trkpt>
      <trkpt lat="42.61340738274157047271728515625" lon="2.51764652319252490997314453125">
        <ele>392.399993896484375</ele>
        <time>2017-06-02T07:24:33.000Z</time>
        <extensions>
          <ns3:TrackPointExtension/>
        </extensions>
      </trkpt>
      <trkpt lat="42.61303354986011981964111328125" lon="2.517099268734455108642578125">
        <ele>397.20001220703125</ele>
        <time>2017-06-02T07:24:55.000Z</time>
        <extensions>
          <ns3:TrackPointExtension/>
        </extensions>
      </trkpt>
      <trkpt lat="42.61277002282440662384033203125" lon="2.516469620168209075927734375">
        <ele>398.600006103515625</ele>
        <time>2017-06-02T07:25:17.000Z</time>
        <extensions>
          <ns3:TrackPointExtension/>
        </extensions>
      </trkpt>
      <trkpt lat="42.6124526001513004302978515625" lon="2.5158758461475372314453125">
        <ele>399.399993896484375</ele>
        <time>2017-06-02T07:25:38.000Z</time>
        <extensions>
          <ns3:TrackPointExtension/>
        </extensions>
      </trkpt>
      <trkpt lat="42.61204607784748077392578125" lon="2.5153425894677639007568359375">
        <ele>404.20001220703125</ele>
        <time>2017-06-02T07:25:59.000Z</time>
        <extensions>
          <ns3:TrackPointExtension/>
        </extensions>
      </trkpt>
      <trkpt lat="42.6116603426635265350341796875" lon="2.51480271108448505401611328125">
        <ele>408.79998779296875</ele>
        <time>2017-06-02T07:26:17.000Z</time>
        <extensions>
          <ns3:TrackPointExtension/>
        </extensions>
      </trkpt>
      <trkpt lat="42.611565291881561279296875" lon="2.5140685401856899261474609375">
        <ele>403.20001220703125</ele>
        <time>2017-06-02T07:26:34.000Z</time>
        <extensions>
          <ns3:TrackPointExtension/>
        </extensions>
      </trkpt>
      <trkpt lat="42.6112342067062854766845703125" lon="2.51345523633062839508056640625">
        <ele>405</ele>
        <time>2017-06-02T07:26:51.000Z</time>
        <extensions>
          <ns3:TrackPointExtension/>
        </extensions>
      </trkpt>
      <trkpt lat="42.61091929860413074493408203125" lon="2.5128638930618762969970703125">
        <ele>395.79998779296875</ele>
        <time>2017-06-02T07:27:07.000Z</time>
        <extensions>
          <ns3:TrackPointExtension/>
        </extensions>
      </trkpt>
      <trkpt lat="42.61039316654205322265625" lon="2.5126285292208194732666015625">
        <ele>403.399993896484375</ele>
        <time>2017-06-02T07:27:26.000Z</time>
        <extensions>
          <ns3:TrackPointExtension/>
        </extensions>
      </trkpt>
      <trkpt lat="42.6098481751978397369384765625" lon="2.512496598064899444580078125">
        <ele>414.79998779296875</ele>
        <time>2017-06-02T07:27:46.000Z</time>
        <extensions>
          <ns3:TrackPointExtension/>
        </extensions>
      </trkpt>
      <trkpt lat="42.60934920050203800201416015625" lon="2.512144558131694793701171875">
        <ele>413.399993896484375</ele>
        <time>2017-06-02T07:28:05.000Z</time>
        <extensions>
          <ns3:TrackPointExtension/>
        </extensions>
      </trkpt>
      <trkpt lat="42.60890110395848751068115234375" lon="2.5117092020809650421142578125">
        <ele>407</ele>
        <time>2017-06-02T07:28:21.000Z</time>
        <extensions>
          <ns3:TrackPointExtension/>
        </extensions>
      </trkpt>
      <trkpt lat="42.608492486178874969482421875" lon="2.51121877692639827728271484375">
        <ele>405.399993896484375</ele>
        <time>2017-06-02T07:28:37.000Z</time>
        <extensions>
          <ns3:TrackPointExtension/>
        </extensions>
      </trkpt>
      <trkpt lat="42.60816626250743865966796875" lon="2.5106058083474636077880859375">
        <ele>393.20001220703125</ele>
        <time>2017-06-02T07:28:53.000Z</time>
        <extensions>
          <ns3:TrackPointExtension/>
        </extensions>
      </trkpt>
      <trkpt lat="42.6078237779438495635986328125" lon="2.5109015218913555145263671875">
        <ele>392.600006103515625</ele>
        <time>2017-06-02T07:29:09.000Z</time>
        <extensions>
          <ns3:TrackPointExtension/>
        </extensions>
      </trkpt>
      <trkpt lat="42.60788169689476490020751953125" lon="2.51152932643890380859375">
        <ele>404.20001220703125</ele>
        <time>2017-06-02T07:29:21.000Z</time>
        <extensions>
          <ns3:TrackPointExtension/>
        </extensions>
      </trkpt>
      <trkpt lat="42.607638873159885406494140625" lon="2.51221370883285999298095703125">
        <ele>412</ele>
        <time>2017-06-02T07:29:36.000Z</time>
        <extensions>
          <ns3:TrackPointExtension/>
        </extensions>
      </trkpt>
      <trkpt lat="42.60725020430982112884521484375" lon="2.51278451643884181976318359375">
        <ele>416.600006103515625</ele>
        <time>2017-06-02T07:29:51.000Z</time>
        <extensions>
          <ns3:TrackPointExtension/>
        </extensions>
      </trkpt>
      <trkpt lat="42.60682339780032634735107421875" lon="2.51323194243013858795166015625">
        <ele>411.79998779296875</ele>
        <time>2017-06-02T07:30:05.000Z</time>
        <extensions>
          <ns3:TrackPointExtension/>
        </extensions>
      </trkpt>
      <trkpt lat="42.6064682565629482269287109375" lon="2.51360309310257434844970703125">
        <ele>421.79998779296875</ele>
        <time>2017-06-02T07:30:17.000Z</time>
        <extensions>
          <ns3:TrackPointExtension/>
        </extensions>
      </trkpt>
      <trkpt lat="42.60635602287948131561279296875" lon="2.51365288160741329193115234375">
        <ele>424</ele>
        <time>2017-06-02T07:30:20.000Z</time>
        <extensions>
          <ns3:TrackPointExtension/>
        </extensions>
      </trkpt>
      <trkpt lat="42.60589837096631526947021484375" lon="2.51385555602610111236572265625">
        <ele>416.399993896484375</ele>
        <time>2017-06-02T07:30:32.000Z</time>
        <extensions>
          <ns3:TrackPointExtension/>
        </extensions>
      </trkpt>
      <trkpt lat="42.60580784641206264495849609375" lon="2.514042891561985015869140625">
        <ele>421.20001220703125</ele>
        <time>2017-06-02T07:30:36.000Z</time>
        <extensions>
          <ns3:TrackPointExtension/>
        </extensions>
      </trkpt>
      <trkpt lat="42.6056756637990474700927734375" lon="2.5142522715032100677490234375">
        <ele>432.79998779296875</ele>
        <time>2017-06-02T07:30:43.000Z</time>
        <extensions>
          <ns3:TrackPointExtension/>
        </extensions>
      </trkpt>
      <trkpt lat="42.6055395416915416717529296875" lon="2.5140130519866943359375">
        <ele>432.79998779296875</ele>
        <time>2017-06-02T07:30:47.000Z</time>
        <extensions>
          <ns3:TrackPointExtension/>
        </extensions>
      </trkpt>
      <trkpt lat="42.60535287670791149139404296875" lon="2.5133228860795497894287109375">
        <ele>426.79998779296875</ele>
        <time>2017-06-02T07:31:00.000Z</time>
        <extensions>
          <ns3:TrackPointExtension/>
        </extensions>
      </trkpt>
      <trkpt lat="42.60512103326618671417236328125" lon="2.5126188062131404876708984375">
        <ele>425.79998779296875</ele>
        <time>2017-06-02T07:31:16.000Z</time>
        <extensions>
          <ns3:TrackPointExtension/>
        </extensions>
      </trkpt>
      <trkpt lat="42.604905702173709869384765625" lon="2.51191514544188976287841796875">
        <ele>418.79998779296875</ele>
        <time>2017-06-02T07:31:33.000Z</time>
        <extensions>
          <ns3:TrackPointExtension/>
        </extensions>
      </trkpt>
      <trkpt lat="42.604597918689250946044921875" lon="2.51135766506195068359375">
        <ele>407.600006103515625</ele>
        <time>2017-06-02T07:31:51.000Z</time>
        <extensions>
          <ns3:TrackPointExtension/>
        </extensions>
      </trkpt>
      <trkpt lat="42.6040452159941196441650390625" lon="2.5114738382399082183837890625">
        <ele>423.600006103515625</ele>
        <time>2017-06-02T07:32:09.000Z</time>
        <extensions>
          <ns3:TrackPointExtension/>
        </extensions>
      </trkpt>
      <trkpt lat="42.60355395264923572540283203125" lon="2.511834762990474700927734375">
        <ele>420.20001220703125</ele>
        <time>2017-06-02T07:32:27.000Z</time>
        <extensions>
          <ns3:TrackPointExtension/>
        </extensions>
      </trkpt>
      <trkpt lat="42.60317006148397922515869140625" lon="2.51238721422851085662841796875">
        <ele>429.600006103515625</ele>
        <time>2017-06-02T07:32:46.000Z</time>
        <extensions>
          <ns3:TrackPointExtension/>
        </extensions>
      </trkpt>
      <trkpt lat="42.60292522609233856201171875" lon="2.51307084225118160247802734375">
        <ele>440</ele>
        <time>2017-06-02T07:33:05.000Z</time>
        <extensions>
          <ns3:TrackPointExtension/>
        </extensions>
      </trkpt>
      <trkpt lat="42.6028409041464328765869140625" lon="2.513308636844158172607421875">
        <ele>443</ele>
        <time>2017-06-02T07:33:12.000Z</time>
        <extensions>
          <ns3:TrackPointExtension/>
        </extensions>
      </trkpt>
      <trkpt lat="42.602362297475337982177734375" lon="2.5136668793857097625732421875">
        <ele>446</ele>
        <time>2017-06-02T07:33:30.000Z</time>
        <extensions>
          <ns3:TrackPointExtension/>
        </extensions>
      </trkpt>
      <trkpt lat="42.60188226588070392608642578125" lon="2.5140692107379436492919921875">
        <ele>457.79998779296875</ele>
        <time>2017-06-02T07:33:51.000Z</time>
        <extensions>
          <ns3:TrackPointExtension/>
        </extensions>
      </trkpt>
      <trkpt lat="42.60137951932847499847412109375" lon="2.51391892321407794952392578125">
        <ele>455</ele>
        <time>2017-06-02T07:34:11.000Z</time>
        <extensions>
          <ns3:TrackPointExtension/>
        </extensions>
      </trkpt>
      <trkpt lat="42.60089320130646228790283203125" lon="2.51359261572360992431640625">
        <ele>453.600006103515625</ele>
        <time>2017-06-02T07:34:31.000Z</time>
        <extensions>
          <ns3:TrackPointExtension/>
        </extensions>
      </trkpt>
      <trkpt lat="42.6005238108336925506591796875" lon="2.5130903720855712890625">
        <ele>438.20001220703125</ele>
        <time>2017-06-02T07:34:51.000Z</time>
        <extensions>
          <ns3:TrackPointExtension/>
        </extensions>
      </trkpt>
      <trkpt lat="42.600242011249065399169921875" lon="2.51283447258174419403076171875">
        <ele>432</ele>
        <time>2017-06-02T07:35:11.000Z</time>
        <extensions>
          <ns3:TrackPointExtension/>
        </extensions>
      </trkpt>
      <trkpt lat="42.59986910037696361541748046875" lon="2.5133295916020870208740234375">
        <ele>460</ele>
        <time>2017-06-02T07:35:32.000Z</time>
        <extensions>
          <ns3:TrackPointExtension/>
        </extensions>
      </trkpt>
      <trkpt lat="42.59940725751221179962158203125" lon="2.51364181749522686004638671875">
        <ele>473.600006103515625</ele>
        <time>2017-06-02T07:35:50.000Z</time>
        <extensions>
          <ns3:TrackPointExtension/>
        </extensions>
      </trkpt>
      <trkpt lat="42.59928571991622447967529296875" lon="2.51357786357402801513671875">
        <ele>469.600006103515625</ele>
        <time>2017-06-02T07:35:54.000Z</time>
        <extensions>
          <ns3:TrackPointExtension/>
        </extensions>
      </trkpt>
      <trkpt lat="42.59881046600639820098876953125" lon="2.51321048475801944732666015625">
        <ele>455</ele>
        <time>2017-06-02T07:36:14.000Z</time>
        <extensions>
          <ns3:TrackPointExtension/>
        </extensions>
      </trkpt>
      <trkpt lat="42.598348371684551239013671875" lon="2.5133626163005828857421875">
        <ele>465.20001220703125</ele>
        <time>2017-06-02T07:36:34.000Z</time>
        <extensions>
          <ns3:TrackPointExtension/>
        </extensions>
      </trkpt>
      <trkpt lat="42.5982124172151088714599609375" lon="2.51353570260107517242431640625">
        <ele>475.600006103515625</ele>
        <time>2017-06-02T07:36:42.000Z</time>
        <extensions>
          <ns3:TrackPointExtension/>
        </extensions>
      </trkpt>
      <trkpt lat="42.59812675416469573974609375" lon="2.51344031654298305511474609375">
        <ele>472.600006103515625</ele>
        <time>2017-06-02T07:36:48.000Z</time>
        <extensions>
          <ns3:TrackPointExtension/>
        </extensions>
      </trkpt>
      <trkpt lat="42.59809582494199275970458984375" lon="2.5134056992828845977783203125">
        <ele>471.600006103515625</ele>
        <time>2017-06-02T07:43:33.000Z</time>
        <extensions>
          <ns3:TrackPointExtension/>
        </extensions>
      </trkpt>
      <trkpt lat="42.59765191935002803802490234375" lon="2.5130821578204631805419921875">
        <ele>466</ele>
        <time>2017-06-02T07:44:00.000Z</time>
        <extensions>
          <ns3:TrackPointExtension/>
        </extensions>
      </trkpt>
      <trkpt lat="42.59716845117509365081787109375" lon="2.5130754522979259490966796875">
        <ele>476.600006103515625</ele>
        <time>2017-06-02T07:44:24.000Z</time>
        <extensions>
          <ns3:TrackPointExtension/>
        </extensions>
      </trkpt>
      <trkpt lat="42.59692369960248470306396484375" lon="2.5136963836848735809326171875">
        <ele>497.399993896484375</ele>
        <time>2017-06-02T07:44:44.000Z</time>
        <extensions>
          <ns3:TrackPointExtension/>
        </extensions>
      </trkpt>
      <trkpt lat="42.59689721278846263885498046875" lon="2.51368246972560882568359375">
        <ele>496.79998779296875</ele>
        <time>2017-06-02T07:44:45.000Z</time>
        <extensions>
          <ns3:TrackPointExtension/>
        </extensions>
      </trkpt>
      <trkpt lat="42.5968555547297000885009765625" lon="2.5135461799800395965576171875">
        <ele>493.79998779296875</ele>
        <time>2017-06-02T07:44:49.000Z</time>
        <extensions>
          <ns3:TrackPointExtension/>
        </extensions>
      </trkpt>
      <trkpt lat="42.596679367125034332275390625" lon="2.51286573708057403564453125">
        <ele>478</ele>
        <time>2017-06-02T07:45:10.000Z</time>
        <extensions>
          <ns3:TrackPointExtension/>
        </extensions>
      </trkpt>
      <trkpt lat="42.59642086923122406005859375" lon="2.5122684426605701446533203125">
        <ele>468.600006103515625</ele>
        <time>2017-06-02T07:45:32.000Z</time>
        <extensions>
          <ns3:TrackPointExtension/>
        </extensions>
      </trkpt>
      <trkpt lat="42.59593731723725795745849609375" lon="2.5119392015039920806884765625">
        <ele>471.600006103515625</ele>
        <time>2017-06-02T07:45:52.000Z</time>
        <extensions>
          <ns3:TrackPointExtension/>
        </extensions>
      </trkpt>
      <trkpt lat="42.59543524123728275299072265625" lon="2.512075491249561309814453125">
        <ele>479.399993896484375</ele>
        <time>2017-06-02T07:46:12.000Z</time>
        <extensions>
          <ns3:TrackPointExtension/>
        </extensions>
      </trkpt>
      <trkpt lat="42.59496350772678852081298828125" lon="2.51246047206223011016845703125">
        <ele>488.20001220703125</ele>
        <time>2017-06-02T07:46:34.000Z</time>
        <extensions>
          <ns3:TrackPointExtension/>
        </extensions>
      </trkpt>
      <trkpt lat="42.59441466070711612701416015625" lon="2.51258276402950286865234375">
        <ele>495</ele>
        <time>2017-06-02T07:46:55.000Z</time>
        <extensions>
          <ns3:TrackPointExtension/>
        </extensions>
      </trkpt>
      <trkpt lat="42.593866400420665740966796875" lon="2.51260430552065372467041015625">
        <ele>508.79998779296875</ele>
        <time>2017-06-02T07:47:17.000Z</time>
        <extensions>
          <ns3:TrackPointExtension/>
        </extensions>
      </trkpt>
      <trkpt lat="42.59369348175823688507080078125" lon="2.51252434216439723968505859375">
        <ele>511</ele>
        <time>2017-06-02T07:47:25.000Z</time>
        <extensions>
          <ns3:TrackPointExtension/>
        </extensions>
      </trkpt>
      <trkpt lat="42.5935695134103298187255859375" lon="2.511829398572444915771484375">
        <ele>477.20001220703125</ele>
        <time>2017-06-02T07:47:45.000Z</time>
        <extensions>
          <ns3:TrackPointExtension/>
        </extensions>
      </trkpt>
      <trkpt lat="42.59306668303906917572021484375" lon="2.51170777715742588043212890625">
        <ele>486</ele>
        <time>2017-06-02T07:48:06.000Z</time>
        <extensions>
          <ns3:TrackPointExtension/>
        </extensions>
      </trkpt>
      <trkpt lat="42.5925445742905139923095703125" lon="2.5115398876368999481201171875">
        <ele>492.399993896484375</ele>
        <time>2017-06-02T07:48:26.000Z</time>
        <extensions>
          <ns3:TrackPointExtension/>
        </extensions>
      </trkpt>
      <trkpt lat="42.59211785160005092620849609375" lon="2.51192419789731502532958984375">
        <ele>511</ele>
        <time>2017-06-02T07:48:47.000Z</time>
        <extensions>
          <ns3:TrackPointExtension/>
        </extensions>
      </trkpt>
      <trkpt lat="42.59162683971226215362548828125" lon="2.5119935162365436553955078125">
        <ele>510</ele>
        <time>2017-06-02T07:49:08.000Z</time>
        <extensions>
          <ns3:TrackPointExtension/>
        </extensions>
      </trkpt>
      <trkpt lat="42.591140605509281158447265625" lon="2.5123433768749237060546875">
        <ele>527.79998779296875</ele>
        <time>2017-06-02T07:49:33.000Z</time>
        <extensions>
          <ns3:TrackPointExtension/>
        </extensions>
      </trkpt>
      <trkpt lat="42.59085251949727535247802734375" lon="2.51252233050763607025146484375">
        <ele>533.5999755859375</ele>
        <time>2017-06-02T07:49:49.000Z</time>
        <extensions>
          <ns3:TrackPointExtension/>
        </extensions>
      </trkpt>
      <trkpt lat="42.59078026749193668365478515625" lon="2.51244328916072845458984375">
        <ele>534.5999755859375</ele>
        <time>2017-06-02T07:49:53.000Z</time>
        <extensions>
          <ns3:TrackPointExtension/>
        </extensions>
      </trkpt>
      <trkpt lat="42.59080289863049983978271484375" lon="2.51232527196407318115234375">
        <ele>530.79998779296875</ele>
        <time>2017-06-02T07:49:57.000Z</time>
        <extensions>
          <ns3:TrackPointExtension/>
        </extensions>
      </trkpt>
      <trkpt lat="42.5907381065189838409423828125" lon="2.51160015352070331573486328125">
        <ele>516.79998779296875</ele>
        <time>2017-06-02T07:50:15.000Z</time>
        <extensions>
          <ns3:TrackPointExtension/>
        </extensions>
      </trkpt>
      <trkpt lat="42.59058748371899127960205078125" lon="2.51089104451239109039306640625">
        <ele>512.79998779296875</ele>
        <time>2017-06-02T07:50:37.000Z</time>
        <extensions>
          <ns3:TrackPointExtension/>
        </extensions>
      </trkpt>
      <trkpt lat="42.59041984565556049346923828125" lon="2.51019232906401157379150390625">
        <ele>496.79998779296875</ele>
        <time>2017-06-02T07:50:59.000Z</time>
        <extensions>
          <ns3:TrackPointExtension/>
        </extensions>
      </trkpt>
      <trkpt lat="42.5899250619113445281982421875" lon="2.51045904122292995452880859375">
        <ele>520.4000244140625</ele>
        <time>2017-06-02T07:51:20.000Z</time>
        <extensions>
          <ns3:TrackPointExtension/>
        </extensions>
      </trkpt>
      <trkpt lat="42.58937344886362552642822265625" lon="2.5105655752122402191162109375">
        <ele>521.20001220703125</ele>
        <time>2017-06-02T07:51:41.000Z</time>
        <extensions>
          <ns3:TrackPointExtension/>
        </extensions>
      </trkpt>
      <trkpt lat="42.5889031402766704559326171875" lon="2.51066775061190128326416015625">
        <ele>515</ele>
        <time>2017-06-02T07:52:03.000Z</time>
        <extensions>
          <ns3:TrackPointExtension/>
        </extensions>
      </trkpt>
      <trkpt lat="42.5886590592563152313232421875" lon="2.5113548152148723602294921875">
        <ele>524.79998779296875</ele>
        <time>2017-06-02T07:52:26.000Z</time>
        <extensions>
          <ns3:TrackPointExtension/>
        </extensions>
      </trkpt>
      <trkpt lat="42.5882926024496555328369140625" lon="2.51191849820315837860107421875">
        <ele>533</ele>
        <time>2017-06-02T07:52:49.000Z</time>
        <extensions>
          <ns3:TrackPointExtension/>
        </extensions>
      </trkpt>
      <trkpt lat="42.58788331411778926849365234375" lon="2.51242560334503650665283203125">
        <ele>547.5999755859375</ele>
        <time>2017-06-02T07:53:12.000Z</time>
        <extensions>
          <ns3:TrackPointExtension/>
        </extensions>
      </trkpt>
      <trkpt lat="42.58739733137190341949462890625" lon="2.51242124475538730621337890625">
        <ele>543.20001220703125</ele>
        <time>2017-06-02T07:53:34.000Z</time>
        <extensions>
          <ns3:TrackPointExtension/>
        </extensions>
      </trkpt>
      <trkpt lat="42.58693163283169269561767578125" lon="2.5123210810124874114990234375">
        <ele>550.20001220703125</ele>
        <time>2017-06-02T07:53:56.000Z</time>
        <extensions>
          <ns3:TrackPointExtension/>
        </extensions>
      </trkpt>
      <trkpt lat="42.58658193983137607574462890625" lon="2.51175622455775737762451171875">
        <ele>530.5999755859375</ele>
        <time>2017-06-02T07:54:18.000Z</time>
        <extensions>
          <ns3:TrackPointExtension/>
        </extensions>
      </trkpt>
      <trkpt lat="42.58608791045844554901123046875" lon="2.5118364393711090087890625">
        <ele>536.5999755859375</ele>
        <time>2017-06-02T07:54:40.000Z</time>
        <extensions>
          <ns3:TrackPointExtension/>
        </extensions>
      </trkpt>
      <trkpt lat="42.58560108952224254608154296875" lon="2.51207859255373477935791015625">
        <ele>555.4000244140625</ele>
        <time>2017-06-02T07:55:03.000Z</time>
        <extensions>
          <ns3:TrackPointExtension/>
        </extensions>
      </trkpt>
      <trkpt lat="42.5850531645119190216064453125" lon="2.5121893174946308135986328125">
        <ele>556.5999755859375</ele>
        <time>2017-06-02T07:55:25.000Z</time>
        <extensions>
          <ns3:TrackPointExtension/>
        </extensions>
      </trkpt>
      <trkpt lat="42.58456709794700145721435546875" lon="2.51238604076206684112548828125">
        <ele>578.4000244140625</ele>
        <time>2017-06-02T07:55:47.000Z</time>
        <extensions>
          <ns3:TrackPointExtension/>
        </extensions>
      </trkpt>
      <trkpt lat="42.5844020582735538482666015625" lon="2.51168078742921352386474609375">
        <ele>561.4000244140625</ele>
        <time>2017-06-02T07:56:08.000Z</time>
        <extensions>
          <ns3:TrackPointExtension/>
        </extensions>
      </trkpt>
      <trkpt lat="42.58403987623751163482666015625" lon="2.51116789877414703369140625">
        <ele>554.20001220703125</ele>
        <time>2017-06-02T07:56:29.000Z</time>
        <extensions>
          <ns3:TrackPointExtension/>
        </extensions>
      </trkpt>
      <trkpt lat="42.5835268199443817138671875" lon="2.51100562512874603271484375">
        <ele>548.79998779296875</ele>
        <time>2017-06-02T07:56:51.000Z</time>
        <extensions>
          <ns3:TrackPointExtension/>
        </extensions>
      </trkpt>
      <trkpt lat="42.5829992629587650299072265625" lon="2.51116228289902210235595703125">
        <ele>554.5999755859375</ele>
        <time>2017-06-02T07:57:13.000Z</time>
        <extensions>
          <ns3:TrackPointExtension/>
        </extensions>
      </trkpt>
      <trkpt lat="42.5824980251491069793701171875" lon="2.51147978939116001129150390625">
        <ele>559</ele>
        <time>2017-06-02T07:57:34.000Z</time>
        <extensions>
          <ns3:TrackPointExtension/>
        </extensions>
      </trkpt>
      <trkpt lat="42.5823412835597991943359375" lon="2.5121477432548999786376953125">
        <ele>567.5999755859375</ele>
        <time>2017-06-02T07:57:54.000Z</time>
        <extensions>
          <ns3:TrackPointExtension/>
        </extensions>
      </trkpt>
      <trkpt lat="42.58225553669035434722900390625" lon="2.5129011087119579315185546875">
        <ele>573.79998779296875</ele>
        <time>2017-06-02T07:58:13.000Z</time>
        <extensions>
          <ns3:TrackPointExtension/>
        </extensions>
      </trkpt>
      <trkpt lat="42.58214154280722141265869140625" lon="2.5136524625122547149658203125">
        <ele>579.79998779296875</ele>
        <time>2017-06-02T07:58:32.000Z</time>
        <extensions>
          <ns3:TrackPointExtension/>
        </extensions>
      </trkpt>
      <trkpt lat="42.58202201686799526214599609375" lon="2.51440591178834438323974609375">
        <ele>588.20001220703125</ele>
        <time>2017-06-02T07:58:51.000Z</time>
        <extensions>
          <ns3:TrackPointExtension/>
        </extensions>
      </trkpt>
      <trkpt lat="42.581857144832611083984375" lon="2.51503455452620983123779296875">
        <ele>593.4000244140625</ele>
        <time>2017-06-02T07:59:09.000Z</time>
        <extensions>
          <ns3:TrackPointExtension/>
        </extensions>
      </trkpt>
      <trkpt lat="42.5813731737434864044189453125" lon="2.51471302472054958343505859375">
        <ele>582.79998779296875</ele>
        <time>2017-06-02T07:59:28.000Z</time>
        <extensions>
          <ns3:TrackPointExtension/>
        </extensions>
      </trkpt>
      <trkpt lat="42.5812112353742122650146484375" lon="2.5140162371098995208740234375">
        <ele>567.20001220703125</ele>
        <time>2017-06-02T07:59:48.000Z</time>
        <extensions>
          <ns3:TrackPointExtension/>
        </extensions>
      </trkpt>
      <trkpt lat="42.5807398371398448944091796875" lon="2.51400701701641082763671875">
        <ele>566.79998779296875</ele>
        <time>2017-06-02T08:00:05.000Z</time>
        <extensions>
          <ns3:TrackPointExtension/>
        </extensions>
      </trkpt>
      <trkpt lat="42.58039190433919429779052734375" lon="2.51460380852222442626953125">
        <ele>580.79998779296875</ele>
        <time>2017-06-02T08:00:21.000Z</time>
        <extensions>
          <ns3:TrackPointExtension/>
        </extensions>
      </trkpt>
      <trkpt lat="42.57985428906977176666259765625" lon="2.5147374160587787628173828125">
        <ele>581.20001220703125</ele>
        <time>2017-06-02T08:00:37.000Z</time>
        <extensions>
          <ns3:TrackPointExtension/>
        </extensions>
      </trkpt>
      <trkpt lat="42.57928716950118541717529296875" lon="2.5147608853876590728759765625">
        <ele>579</ele>
        <time>2017-06-02T08:00:54.000Z</time>
        <extensions>
          <ns3:TrackPointExtension/>
        </extensions>
      </trkpt>
      <trkpt lat="42.57876120507717132568359375" lon="2.51481528393924236297607421875">
        <ele>570</ele>
        <time>2017-06-02T08:01:11.000Z</time>
        <extensions>
          <ns3:TrackPointExtension/>
        </extensions>
      </trkpt>
      <trkpt lat="42.57827161811292171478271484375" lon="2.515198253095149993896484375">
        <ele>573.79998779296875</ele>
        <time>2017-06-02T08:01:27.000Z</time>
        <extensions>
          <ns3:TrackPointExtension/>
        </extensions>
      </trkpt>
      <trkpt lat="42.5778510980308055877685546875" lon="2.5157006643712520599365234375">
        <ele>578.5999755859375</ele>
        <time>2017-06-02T08:01:45.000Z</time>
        <extensions>
          <ns3:TrackPointExtension/>
        </extensions>
      </trkpt>
      <trkpt lat="42.57737944833934307098388671875" lon="2.51607022248208522796630859375">
        <ele>575</ele>
        <time>2017-06-02T08:02:01.000Z</time>
        <extensions>
          <ns3:TrackPointExtension/>
        </extensions>
      </trkpt>
      <trkpt lat="42.57694627158343791961669921875" lon="2.51652971841394901275634765625">
        <ele>576.5999755859375</ele>
        <time>2017-06-02T08:02:17.000Z</time>
        <extensions>
          <ns3:TrackPointExtension/>
        </extensions>
      </trkpt>
      <trkpt lat="42.5768080540001392364501953125" lon="2.517233379185199737548828125">
        <ele>587</ele>
        <time>2017-06-02T08:02:33.000Z</time>
        <extensions>
          <ns3:TrackPointExtension/>
        </extensions>
      </trkpt>
      <trkpt lat="42.57627219893038272857666015625" lon="2.51728693954646587371826171875">
        <ele>572.5999755859375</ele>
        <time>2017-06-02T08:02:47.000Z</time>
        <extensions>
          <ns3:TrackPointExtension/>
        </extensions>
      </trkpt>
      <trkpt lat="42.57611528970301151275634765625" lon="2.517413087189197540283203125">
        <ele>569.5999755859375</ele>
        <time>2017-06-02T08:02:51.000Z</time>
        <extensions>
          <ns3:TrackPointExtension/>
        </extensions>
      </trkpt>
      <trkpt lat="42.57591026835143566131591796875" lon="2.51764275133609771728515625">
        <ele>566.20001220703125</ele>
        <time>2017-06-02T08:02:56.000Z</time>
        <extensions>
          <ns3:TrackPointExtension/>
        </extensions>
      </trkpt>
      <trkpt lat="42.5758897326886653900146484375" lon="2.5179882533848285675048828125">
        <ele>567.4000244140625</ele>
        <time>2017-06-02T08:03:01.000Z</time>
        <extensions>
          <ns3:TrackPointExtension/>
        </extensions>
      </trkpt>
      <trkpt lat="42.57592652924358844757080078125" lon="2.51803443767130374908447265625">
        <ele>569</ele>
        <time>2017-06-02T08:03:02.000Z</time>
        <extensions>
          <ns3:TrackPointExtension/>
        </extensions>
      </trkpt>
      <trkpt lat="42.576145716011524200439453125" lon="2.51844179816544055938720703125">
        <ele>580.5999755859375</ele>
        <time>2017-06-02T08:03:14.000Z</time>
        <extensions>
          <ns3:TrackPointExtension/>
        </extensions>
      </trkpt>
      <trkpt lat="42.57611520588397979736328125" lon="2.518481947481632232666015625">
        <ele>580.20001220703125</ele>
        <time>2017-06-02T08:03:15.000Z</time>
        <extensions>
          <ns3:TrackPointExtension/>
        </extensions>
      </trkpt>
      <trkpt lat="42.57597841322422027587890625" lon="2.518640197813510894775390625">
        <ele>579.5999755859375</ele>
        <time>2017-06-02T08:03:19.000Z</time>
        <extensions>
          <ns3:TrackPointExtension/>
        </extensions>
      </trkpt>
      <trkpt lat="42.575875818729400634765625" lon="2.518885619938373565673828125">
        <ele>583.20001220703125</ele>
        <time>2017-06-02T08:03:24.000Z</time>
        <extensions>
          <ns3:TrackPointExtension/>
        </extensions>
      </trkpt>
      <trkpt lat="42.57579359225928783416748046875" lon="2.51921662129461765289306640625">
        <ele>592.5999755859375</ele>
        <time>2017-06-02T08:03:31.000Z</time>
        <extensions>
          <ns3:TrackPointExtension/>
        </extensions>
      </trkpt>
      <trkpt lat="42.57565520703792572021484375" lon="2.5192445330321788787841796875">
        <ele>595.5999755859375</ele>
        <time>2017-06-02T08:03:35.000Z</time>
        <extensions>
          <ns3:TrackPointExtension/>
        </extensions>
      </trkpt>
      <trkpt lat="42.57560960948467254638671875" lon="2.51918862573802471160888671875">
        <ele>594</ele>
        <time>2017-06-02T08:03:37.000Z</time>
        <extensions>
          <ns3:TrackPointExtension/>
        </extensions>
      </trkpt>
      <trkpt lat="42.57550760172307491302490234375" lon="2.5189615599811077117919921875">
        <ele>584.4000244140625</ele>
        <time>2017-06-02T08:03:43.000Z</time>
        <extensions>
          <ns3:TrackPointExtension/>
        </extensions>
      </trkpt>
      <trkpt lat="42.574970237910747528076171875" lon="2.51882216893136501312255859375">
        <ele>584.5999755859375</ele>
        <time>2017-06-02T08:03:59.000Z</time>
        <extensions>
          <ns3:TrackPointExtension/>
        </extensions>
      </trkpt>
      <trkpt lat="42.57441359572112560272216796875" lon="2.518803812563419342041015625">
        <ele>584.79998779296875</ele>
        <time>2017-06-02T08:04:16.000Z</time>
        <extensions>
          <ns3:TrackPointExtension/>
        </extensions>
      </trkpt>
      <trkpt lat="42.57386994548141956329345703125" lon="2.51863307319581508636474609375">
        <ele>577</ele>
        <time>2017-06-02T08:04:32.000Z</time>
        <extensions>
          <ns3:TrackPointExtension/>
        </extensions>
      </trkpt>
      <trkpt lat="42.5733597390353679656982421875" lon="2.5184029899537563323974609375">
        <ele>567.5999755859375</ele>
        <time>2017-06-02T08:04:48.000Z</time>
        <extensions>
          <ns3:TrackPointExtension/>
        </extensions>
      </trkpt>
      <trkpt lat="42.57301390171051025390625" lon="2.519030459225177764892578125">
        <ele>580.20001220703125</ele>
        <time>2017-06-02T08:05:03.000Z</time>
        <extensions>
          <ns3:TrackPointExtension/>
        </extensions>
      </trkpt>
      <trkpt lat="42.5726734288036823272705078125" lon="2.5195895321667194366455078125">
        <ele>580.20001220703125</ele>
        <time>2017-06-02T08:05:17.000Z</time>
        <extensions>
          <ns3:TrackPointExtension/>
        </extensions>
      </trkpt>
      <trkpt lat="42.5725728459656238555908203125" lon="2.51993780024349689483642578125">
        <ele>579.79998779296875</ele>
        <time>2017-06-02T08:05:24.000Z</time>
        <extensions>
          <ns3:TrackPointExtension/>
        </extensions>
      </trkpt>
      <trkpt lat="42.5722895376384258270263671875" lon="2.520606927573680877685546875">
        <ele>595.79998779296875</ele>
        <time>2017-06-02T08:05:38.000Z</time>
        <extensions>
          <ns3:TrackPointExtension/>
        </extensions>
      </trkpt>
      <trkpt lat="42.57194562815129756927490234375" lon="2.52115535549819469451904296875">
        <ele>592</ele>
        <time>2017-06-02T08:05:53.000Z</time>
        <extensions>
          <ns3:TrackPointExtension/>
        </extensions>
      </trkpt>
      <trkpt lat="42.57146601565182209014892578125" lon="2.52153723500669002532958984375">
        <ele>587.4000244140625</ele>
        <time>2017-06-02T08:06:06.000Z</time>
        <extensions>
          <ns3:TrackPointExtension/>
        </extensions>
      </trkpt>
      <trkpt lat="42.57101607508957386016845703125" lon="2.52200913615524768829345703125">
        <ele>584.20001220703125</ele>
        <time>2017-06-02T08:06:20.000Z</time>
        <extensions>
          <ns3:TrackPointExtension/>
        </extensions>
      </trkpt>
      <trkpt lat="42.5708854012191295623779296875" lon="2.5222103856503963470458984375">
        <ele>584</ele>
        <time>2017-06-02T08:06:25.000Z</time>
        <extensions>
          <ns3:TrackPointExtension/>
        </extensions>
      </trkpt>
      <trkpt lat="42.57083393633365631103515625" lon="2.5225081108510494232177734375">
        <ele>591</ele>
        <time>2017-06-02T08:06:31.000Z</time>
        <extensions>
          <ns3:TrackPointExtension/>
        </extensions>
      </trkpt>
      <trkpt lat="42.5707237981259822845458984375" lon="2.52286174334585666656494140625">
        <ele>600.20001220703125</ele>
        <time>2017-06-02T08:06:40.000Z</time>
        <extensions>
          <ns3:TrackPointExtension/>
        </extensions>
      </trkpt>
      <trkpt lat="42.57061843760311603546142578125" lon="2.52273785881698131561279296875">
        <ele>595.79998779296875</ele>
        <time>2017-06-02T08:06:44.000Z</time>
        <extensions>
          <ns3:TrackPointExtension/>
        </extensions>
      </trkpt>
      <trkpt lat="42.57010714150965213775634765625" lon="2.5226683728396892547607421875">
        <ele>590.20001220703125</ele>
        <time>2017-06-02T08:06:58.000Z</time>
        <extensions>
          <ns3:TrackPointExtension/>
        </extensions>
      </trkpt>
      <trkpt lat="42.56956533528864383697509765625" lon="2.522686980664730072021484375">
        <ele>583.4000244140625</ele>
        <time>2017-06-02T08:07:12.000Z</time>
        <extensions>
          <ns3:TrackPointExtension/>
        </extensions>
      </trkpt>
      <trkpt lat="42.56918303668498992919921875" lon="2.5231846980750560760498046875">
        <ele>589.79998779296875</ele>
        <time>2017-06-02T08:07:27.000Z</time>
        <extensions>
          <ns3:TrackPointExtension/>
        </extensions>
      </trkpt>
      <trkpt lat="42.56884885020554065704345703125" lon="2.52361200749874114990234375">
        <ele>593.20001220703125</ele>
        <time>2017-06-02T08:07:39.000Z</time>
        <extensions>
          <ns3:TrackPointExtension/>
        </extensions>
      </trkpt>
      <trkpt lat="42.56870619021356105804443359375" lon="2.52366741187870502471923828125">
        <ele>591.20001220703125</ele>
        <time>2017-06-02T08:07:43.000Z</time>
        <extensions>
          <ns3:TrackPointExtension/>
        </extensions>
      </trkpt>
      <trkpt lat="42.56816840730607509613037109375" lon="2.52393613569438457489013671875">
        <ele>592.79998779296875</ele>
        <time>2017-06-02T08:07:59.000Z</time>
        <extensions>
          <ns3:TrackPointExtension/>
        </extensions>
      </trkpt>
      <trkpt lat="42.56773020140826702117919921875" lon="2.524367384612560272216796875">
        <ele>592.5999755859375</ele>
        <time>2017-06-02T08:08:13.000Z</time>
        <extensions>
          <ns3:TrackPointExtension/>
        </extensions>
      </trkpt>
      <trkpt lat="42.56763112731277942657470703125" lon="2.52457718364894390106201171875">
        <ele>596.4000244140625</ele>
        <time>2017-06-02T08:08:17.000Z</time>
        <extensions>
          <ns3:TrackPointExtension/>
        </extensions>
      </trkpt>
      <trkpt lat="42.5674494914710521697998046875" lon="2.5247236154973506927490234375">
        <ele>597.20001220703125</ele>
        <time>2017-06-02T08:08:22.000Z</time>
        <extensions>
          <ns3:TrackPointExtension/>
        </extensions>
      </trkpt>
      <trkpt lat="42.56730289198458194732666015625" lon="2.52478505484759807586669921875">
        <ele>598</ele>
        <time>2017-06-02T08:08:25.000Z</time>
        <extensions>
          <ns3:TrackPointExtension/>
        </extensions>
      </trkpt>
      <trkpt lat="42.5668533705174922943115234375" lon="2.52532082609832286834716796875">
        <ele>594.79998779296875</ele>
        <time>2017-06-02T08:08:35.000Z</time>
        <extensions>
          <ns3:TrackPointExtension/>
        </extensions>
      </trkpt>
      <trkpt lat="42.5665144063532352447509765625" lon="2.52590554766356945037841796875">
        <ele>597.4000244140625</ele>
        <time>2017-06-02T08:08:44.000Z</time>
        <extensions>
          <ns3:TrackPointExtension/>
        </extensions>
      </trkpt>
      <trkpt lat="42.56617586128413677215576171875" lon="2.5264194421470165252685546875">
        <ele>603.5999755859375</ele>
        <time>2017-06-02T08:08:54.000Z</time>
        <extensions>
          <ns3:TrackPointExtension/>
        </extensions>
      </trkpt>
      <trkpt lat="42.566039152443408966064453125" lon="2.52647166140377521514892578125">
        <ele>600.20001220703125</ele>
        <time>2017-06-02T08:08:57.000Z</time>
        <extensions>
          <ns3:TrackPointExtension/>
        </extensions>
      </trkpt>
      <trkpt lat="42.56546683609485626220703125" lon="2.52642430365085601806640625">
        <ele>593.20001220703125</ele>
        <time>2017-06-02T08:09:08.000Z</time>
        <extensions>
          <ns3:TrackPointExtension/>
        </extensions>
      </trkpt>
      <trkpt lat="42.56494321860373020172119140625" lon="2.52616144716739654541015625">
        <ele>588</ele>
        <time>2017-06-02T08:09:18.000Z</time>
        <extensions>
          <ns3:TrackPointExtension/>
        </extensions>
      </trkpt>
      <trkpt lat="42.5648184120655059814453125" lon="2.52613185904920101165771484375">
        <ele>588.79998779296875</ele>
        <time>2017-06-02T08:09:20.000Z</time>
        <extensions>
          <ns3:TrackPointExtension/>
        </extensions>
      </trkpt>
      <trkpt lat="42.56441717036068439483642578125" lon="2.52616991288959980010986328125">
        <ele>591</ele>
        <time>2017-06-02T08:09:27.000Z</time>
        <extensions>
          <ns3:TrackPointExtension/>
        </extensions>
      </trkpt>
      <trkpt lat="42.56405339576303958892822265625" lon="2.52671725116670131683349609375">
        <ele>590.79998779296875</ele>
        <time>2017-06-02T08:09:44.000Z</time>
        <extensions>
          <ns3:TrackPointExtension/>
        </extensions>
      </trkpt>
      <trkpt lat="42.56355442106723785400390625" lon="2.5267282314598560333251953125">
        <ele>592.20001220703125</ele>
        <time>2017-06-02T08:10:02.000Z</time>
        <extensions>
          <ns3:TrackPointExtension/>
        </extensions>
      </trkpt>
      <trkpt lat="42.56304287351667881011962890625" lon="2.5267614237964153289794921875">
        <ele>597.79998779296875</ele>
        <time>2017-06-02T08:10:19.000Z</time>
        <extensions>
          <ns3:TrackPointExtension/>
        </extensions>
      </trkpt>
      <trkpt lat="42.56265479139983654022216796875" lon="2.5272740609943866729736328125">
        <ele>602.4000244140625</ele>
        <time>2017-06-02T08:10:40.000Z</time>
        <extensions>
          <ns3:TrackPointExtension/>
        </extensions>
      </trkpt>
      <trkpt lat="42.56227022968232631683349609375" lon="2.52781846560537815093994140625">
        <ele>604.20001220703125</ele>
        <time>2017-06-02T08:11:03.000Z</time>
        <extensions>
          <ns3:TrackPointExtension/>
        </extensions>
      </trkpt>
      <trkpt lat="42.56197786889970302581787109375" lon="2.52846739254891872406005859375">
        <ele>606.5999755859375</ele>
        <time>2017-06-02T08:11:27.000Z</time>
        <extensions>
          <ns3:TrackPointExtension/>
        </extensions>
      </trkpt>
      <trkpt lat="42.561608143150806427001953125" lon="2.5290215201675891876220703125">
        <ele>608.79998779296875</ele>
        <time>2017-06-02T08:11:51.000Z</time>
        <extensions>
          <ns3:TrackPointExtension/>
        </extensions>
      </trkpt>
      <trkpt lat="42.56120212376117706298828125" lon="2.5295368395745754241943359375">
        <ele>611</ele>
        <time>2017-06-02T08:12:14.000Z</time>
        <extensions>
          <ns3:TrackPointExtension/>
        </extensions>
      </trkpt>
      <trkpt lat="42.56089207716286182403564453125" lon="2.53016590140759944915771484375">
        <ele>613.79998779296875</ele>
        <time>2017-06-02T08:12:38.000Z</time>
        <extensions>
          <ns3:TrackPointExtension/>
        </extensions>
      </trkpt>
      <trkpt lat="42.5605887360870838165283203125" lon="2.530785240232944488525390625">
        <ele>618.20001220703125</ele>
        <time>2017-06-02T08:13:01.000Z</time>
        <extensions>
          <ns3:TrackPointExtension/>
        </extensions>
      </trkpt>
      <trkpt lat="42.56015413440763950347900390625" lon="2.53103208728134632110595703125">
        <ele>626.79998779296875</ele>
        <time>2017-06-02T08:13:22.000Z</time>
        <extensions>
          <ns3:TrackPointExtension/>
        </extensions>
      </trkpt>
      <trkpt lat="42.560149021446704864501953125" lon="2.531063519418239593505859375">
        <ele>626.79998779296875</ele>
        <time>2017-06-02T08:17:35.000Z</time>
        <extensions>
          <ns3:TrackPointExtension/>
        </extensions>
      </trkpt>
      <trkpt lat="42.5601647794246673583984375" lon="2.53111272118985652923583984375">
        <ele>626</ele>
        <time>2017-06-02T08:17:38.000Z</time>
        <extensions>
          <ns3:TrackPointExtension/>
        </extensions>
      </trkpt>
      <trkpt lat="42.56015933118760585784912109375" lon="2.53114306367933750152587890625">
        <ele>626</ele>
        <time>2017-06-02T08:17:40.000Z</time>
        <extensions>
          <ns3:TrackPointExtension/>
        </extensions>
      </trkpt>
      <trkpt lat="42.56014793179929256439208984375" lon="2.5312447361648082733154296875">
        <ele>625.4000244140625</ele>
        <time>2017-06-02T08:17:44.000Z</time>
        <extensions>
          <ns3:TrackPointExtension/>
        </extensions>
      </trkpt>
      <trkpt lat="42.5598735921084880828857421875" lon="2.53188637085258960723876953125">
        <ele>627.79998779296875</ele>
        <time>2017-06-02T08:18:13.000Z</time>
        <extensions>
          <ns3:TrackPointExtension/>
        </extensions>
      </trkpt>
      <trkpt lat="42.5595849193632602691650390625" lon="2.53251685760915279388427734375">
        <ele>632.20001220703125</ele>
        <time>2017-06-02T08:18:40.000Z</time>
        <extensions>
          <ns3:TrackPointExtension/>
        </extensions>
      </trkpt>
      <trkpt lat="42.5592043809592723846435546875" lon="2.533055730164051055908203125">
        <ele>632.20001220703125</ele>
        <time>2017-06-02T08:19:06.000Z</time>
        <extensions>
          <ns3:TrackPointExtension/>
        </extensions>
      </trkpt>
      <trkpt lat="42.55901704542338848114013671875" lon="2.53303603269159793853759765625">
        <ele>638.20001220703125</ele>
        <time>2017-06-02T08:19:15.000Z</time>
        <extensions>
          <ns3:TrackPointExtension/>
        </extensions>
      </trkpt>
      <trkpt lat="42.55848311819136142730712890625" lon="2.53308012150228023529052734375">
        <ele>647.5999755859375</ele>
        <time>2017-06-02T08:19:38.000Z</time>
        <extensions>
          <ns3:TrackPointExtension/>
        </extensions>
      </trkpt>
      <trkpt lat="42.5579600036144256591796875" lon="2.53332001157104969024658203125">
        <ele>645.4000244140625</ele>
        <time>2017-06-02T08:20:05.000Z</time>
        <extensions>
          <ns3:TrackPointExtension/>
        </extensions>
      </trkpt>
      <trkpt lat="42.5574512220919132232666015625" lon="2.53354598768055438995361328125">
        <ele>647</ele>
        <time>2017-06-02T08:20:32.000Z</time>
        <extensions>
          <ns3:TrackPointExtension/>
        </extensions>
      </trkpt>
      <trkpt lat="42.55706825293600559234619140625" lon="2.5330693088471889495849609375">
        <ele>654.4000244140625</ele>
        <time>2017-06-02T08:20:57.000Z</time>
        <extensions>
          <ns3:TrackPointExtension/>
        </extensions>
      </trkpt>
      <trkpt lat="42.55674429237842559814453125" lon="2.53250755369663238525390625">
        <ele>667.79998779296875</ele>
        <time>2017-06-02T08:21:21.000Z</time>
        <extensions>
          <ns3:TrackPointExtension/>
        </extensions>
      </trkpt>
      <trkpt lat="42.55625135265290737152099609375" lon="2.53220220096409320831298828125">
        <ele>679</ele>
        <time>2017-06-02T08:21:45.000Z</time>
        <extensions>
          <ns3:TrackPointExtension/>
        </extensions>
      </trkpt>
      <trkpt lat="42.55572639405727386474609375" lon="2.5323601998388767242431640625">
        <ele>676</ele>
        <time>2017-06-02T08:22:08.000Z</time>
        <extensions>
          <ns3:TrackPointExtension/>
        </extensions>
      </trkpt>
      <trkpt lat="42.55528911016881465911865234375" lon="2.53279379568994045257568359375">
        <ele>685</ele>
        <time>2017-06-02T08:22:34.000Z</time>
        <extensions>
          <ns3:TrackPointExtension/>
        </extensions>
      </trkpt>
      <trkpt lat="42.55492785014212131500244140625" lon="2.5333666987717151641845703125">
        <ele>683</ele>
        <time>2017-06-02T08:23:02.000Z</time>
        <extensions>
          <ns3:TrackPointExtension/>
        </extensions>
      </trkpt>
      <trkpt lat="42.5546989403665065765380859375" lon="2.53404269926249980926513671875">
        <ele>683.79998779296875</ele>
        <time>2017-06-02T08:23:28.000Z</time>
        <extensions>
          <ns3:TrackPointExtension/>
        </extensions>
      </trkpt>
      <trkpt lat="42.55440783686935901641845703125" lon="2.5346648879349231719970703125">
        <ele>690.4000244140625</ele>
        <time>2017-06-02T08:23:53.000Z</time>
        <extensions>
          <ns3:TrackPointExtension/>
        </extensions>
      </trkpt>
      <trkpt lat="42.5543824397027492523193359375" lon="2.5353848934173583984375">
        <ele>684.5999755859375</ele>
        <time>2017-06-02T08:24:18.000Z</time>
        <extensions>
          <ns3:TrackPointExtension/>
        </extensions>
      </trkpt>
      <trkpt lat="42.55403794348239898681640625" lon="2.5359362550079822540283203125">
        <ele>692</ele>
        <time>2017-06-02T08:24:44.000Z</time>
        <extensions>
          <ns3:TrackPointExtension/>
        </extensions>
      </trkpt>
      <trkpt lat="42.553605772554874420166015625" lon="2.53631872124969959259033203125">
        <ele>706</ele>
        <time>2017-06-02T08:25:10.000Z</time>
        <extensions>
          <ns3:TrackPointExtension/>
        </extensions>
      </trkpt>
      <trkpt lat="42.55395052023231983184814453125" lon="2.53676430322229862213134765625">
        <ele>687.20001220703125</ele>
        <time>2017-06-02T08:25:34.000Z</time>
        <extensions>
          <ns3:TrackPointExtension/>
        </extensions>
      </trkpt>
      <trkpt lat="42.5539881549775600433349609375" lon="2.5374942831695079803466796875">
        <ele>686.5999755859375</ele>
        <time>2017-06-02T08:25:59.000Z</time>
        <extensions>
          <ns3:TrackPointExtension/>
        </extensions>
      </trkpt>
      <trkpt lat="42.55384809337556362152099609375" lon="2.53821789287030696868896484375">
        <ele>691.20001220703125</ele>
        <time>2017-06-02T08:26:26.000Z</time>
        <extensions>
          <ns3:TrackPointExtension/>
        </extensions>
      </trkpt>
      <trkpt lat="42.5536094605922698974609375" lon="2.5388477928936481475830078125">
        <ele>697.20001220703125</ele>
        <time>2017-06-02T08:26:53.000Z</time>
        <extensions>
          <ns3:TrackPointExtension/>
        </extensions>
      </trkpt>
      <trkpt lat="42.55315306596457958221435546875" lon="2.5390405766665935516357421875">
        <ele>703.5999755859375</ele>
        <time>2017-06-02T08:27:20.000Z</time>
        <extensions>
          <ns3:TrackPointExtension/>
        </extensions>
      </trkpt>
      <trkpt lat="42.5526219047605991363525390625" lon="2.53886866383254528045654296875">
        <ele>726</ele>
        <time>2017-06-02T08:27:52.000Z</time>
        <extensions>
          <ns3:TrackPointExtension/>
        </extensions>
      </trkpt>
      <trkpt lat="42.552470527589321136474609375" lon="2.538908980786800384521484375">
        <ele>728</ele>
        <time>2017-06-02T08:28:01.000Z</time>
        <extensions>
          <ns3:TrackPointExtension/>
        </extensions>
      </trkpt>
      <trkpt lat="42.55200943909585475921630859375" lon="2.5392471067607402801513671875">
        <ele>722.79998779296875</ele>
        <time>2017-06-02T08:28:32.000Z</time>
        <extensions>
          <ns3:TrackPointExtension/>
        </extensions>
      </trkpt>
      <trkpt lat="42.5515647791326045989990234375" lon="2.5395857356488704681396484375">
        <ele>721.4000244140625</ele>
        <time>2017-06-02T08:29:01.000Z</time>
        <extensions>
          <ns3:TrackPointExtension/>
        </extensions>
      </trkpt>
      <trkpt lat="42.5516355223953723907470703125" lon="2.5395988114178180694580078125">
        <ele>717.5999755859375</ele>
        <time>2017-06-02T08:31:37.000Z</time>
        <extensions>
          <ns3:TrackPointExtension/>
        </extensions>
      </trkpt>
      <trkpt lat="42.55162202753126621246337890625" lon="2.53959931433200836181640625">
        <ele>718.20001220703125</ele>
        <time>2017-06-02T08:31:42.000Z</time>
        <extensions>
          <ns3:TrackPointExtension/>
        </extensions>
      </trkpt>
      <trkpt lat="42.55160249769687652587890625" lon="2.53966175951063632965087890625">
        <ele>716.79998779296875</ele>
        <time>2017-06-02T08:38:20.000Z</time>
        <extensions>
          <ns3:TrackPointExtension/>
        </extensions>
      </trkpt>
      <trkpt lat="42.55113872699439525604248046875" lon="2.54007364623248577117919921875">
        <ele>731.20001220703125</ele>
        <time>2017-06-02T08:38:37.000Z</time>
        <extensions>
          <ns3:TrackPointExtension/>
        </extensions>
      </trkpt>
      <trkpt lat="42.55098600871860980987548828125" lon="2.54077009856700897216796875">
        <ele>733.20001220703125</ele>
        <time>2017-06-02T08:38:52.000Z</time>
        <extensions>
          <ns3:TrackPointExtension/>
        </extensions>
      </trkpt>
      <trkpt lat="42.550830356776714324951171875" lon="2.54126203246414661407470703125">
        <ele>730</ele>
        <time>2017-06-02T08:39:04.000Z</time>
        <extensions>
          <ns3:TrackPointExtension/>
        </extensions>
      </trkpt>
      <trkpt lat="42.55026482976973056793212890625" lon="2.54136563278734683990478515625">
        <ele>750.5999755859375</ele>
        <time>2017-06-02T08:39:18.000Z</time>
        <extensions>
          <ns3:TrackPointExtension/>
        </extensions>
      </trkpt>
      <trkpt lat="42.5498327426612377166748046875" lon="2.5417358614504337310791015625">
        <ele>749.79998779296875</ele>
        <time>2017-06-02T08:39:30.000Z</time>
        <extensions>
          <ns3:TrackPointExtension/>
        </extensions>
      </trkpt>
      <trkpt lat="42.5497978739440441131591796875" lon="2.54205412231385707855224609375">
        <ele>741.79998779296875</ele>
        <time>2017-06-02T08:39:35.000Z</time>
        <extensions>
          <ns3:TrackPointExtension/>
        </extensions>
      </trkpt>
      <trkpt lat="42.5497506000101566314697265625" lon="2.542204745113849639892578125">
        <ele>738.79998779296875</ele>
        <time>2017-06-02T08:39:38.000Z</time>
        <extensions>
          <ns3:TrackPointExtension/>
        </extensions>
      </trkpt>
      <trkpt lat="42.54926704801619052886962890625" lon="2.54200416617095470428466796875">
        <ele>757.4000244140625</ele>
        <time>2017-06-02T08:39:51.000Z</time>
        <extensions>
          <ns3:TrackPointExtension/>
        </extensions>
      </trkpt>
      <trkpt lat="42.54916277714073657989501953125" lon="2.5421455688774585723876953125">
        <ele>757</ele>
        <time>2017-06-02T08:39:54.000Z</time>
        <extensions>
          <ns3:TrackPointExtension/>
        </extensions>
      </trkpt>
      <trkpt lat="42.54897032864391803741455078125" lon="2.54263884387910366058349609375">
        <ele>749.4000244140625</ele>
        <time>2017-06-02T08:40:03.000Z</time>
        <extensions>
          <ns3:TrackPointExtension/>
        </extensions>
      </trkpt>
      <trkpt lat="42.5485710985958576202392578125" lon="2.54281452856957912445068359375">
        <ele>752.79998779296875</ele>
        <time>2017-06-02T08:40:12.000Z</time>
        <extensions>
          <ns3:TrackPointExtension/>
        </extensions>
      </trkpt>
      <trkpt lat="42.54802283830940723419189453125" lon="2.54277345724403858184814453125">
        <ele>766.5999755859375</ele>
        <time>2017-06-02T08:40:23.000Z</time>
        <extensions>
          <ns3:TrackPointExtension/>
        </extensions>
      </trkpt>
      <trkpt lat="42.54788420163094997406005859375" lon="2.54278083331882953643798828125">
        <ele>771</ele>
        <time>2017-06-02T08:40:26.000Z</time>
        <extensions>
          <ns3:TrackPointExtension/>
        </extensions>
      </trkpt>
      <trkpt lat="42.54770734347403049468994140625" lon="2.54298317246139049530029296875">
        <ele>772.20001220703125</ele>
        <time>2017-06-02T08:40:31.000Z</time>
        <extensions>
          <ns3:TrackPointExtension/>
        </extensions>
      </trkpt>
      <trkpt lat="42.54763207398355007171630859375" lon="2.54316204227507114410400390625">
        <ele>770.5999755859375</ele>
        <time>2017-06-02T08:40:34.000Z</time>
        <extensions>
          <ns3:TrackPointExtension/>
        </extensions>
      </trkpt>
      <trkpt lat="42.5475434772670269012451171875" lon="2.5435694865882396697998046875">
        <ele>762.79998779296875</ele>
        <time>2017-06-02T08:40:41.000Z</time>
        <extensions>
          <ns3:TrackPointExtension/>
        </extensions>
      </trkpt>
      <trkpt lat="42.547383047640323638916015625" lon="2.543848939239978790283203125">
        <ele>762.4000244140625</ele>
        <time>2017-06-02T08:40:47.000Z</time>
        <extensions>
          <ns3:TrackPointExtension/>
        </extensions>
      </trkpt>
      <trkpt lat="42.5469155050814151763916015625" lon="2.544279433786869049072265625">
        <ele>772</ele>
        <time>2017-06-02T08:41:00.000Z</time>
        <extensions>
          <ns3:TrackPointExtension/>
        </extensions>
      </trkpt>
      <trkpt lat="42.54638803191483020782470703125" lon="2.54444380290806293487548828125">
        <ele>782.79998779296875</ele>
        <time>2017-06-02T08:41:14.000Z</time>
        <extensions>
          <ns3:TrackPointExtension/>
        </extensions>
      </trkpt>
      <trkpt lat="42.54627965390682220458984375" lon="2.54452292807400226593017578125">
        <ele>783.20001220703125</ele>
        <time>2017-06-02T08:41:17.000Z</time>
        <extensions>
          <ns3:TrackPointExtension/>
        </extensions>
      </trkpt>
      <trkpt lat="42.54613992758095264434814453125" lon="2.5445567071437835693359375">
        <ele>787</ele>
        <time>2017-06-02T08:41:20.000Z</time>
        <extensions>
          <ns3:TrackPointExtension/>
        </extensions>
      </trkpt>
      <trkpt lat="42.54596273414790630340576171875" lon="2.54468855448067188262939453125">
        <ele>786</ele>
        <time>2017-06-02T08:41:24.000Z</time>
        <extensions>
          <ns3:TrackPointExtension/>
        </extensions>
      </trkpt>
      <trkpt lat="42.545711360871791839599609375" lon="2.5449206493794918060302734375">
        <ele>782.79998779296875</ele>
        <time>2017-06-02T08:41:31.000Z</time>
        <extensions>
          <ns3:TrackPointExtension/>
        </extensions>
      </trkpt>
      <trkpt lat="42.5456726364791393280029296875" lon="2.54518233239650726318359375">
        <ele>777.79998779296875</ele>
        <time>2017-06-02T08:41:35.000Z</time>
        <extensions>
          <ns3:TrackPointExtension/>
        </extensions>
      </trkpt>
      <trkpt lat="42.545520924031734466552734375" lon="2.54593058489263057708740234375">
        <ele>765.20001220703125</ele>
        <time>2017-06-02T08:41:48.000Z</time>
        <extensions>
          <ns3:TrackPointExtension/>
        </extensions>
      </trkpt>
      <trkpt lat="42.5453739054501056671142578125" lon="2.54606385715305805206298828125">
        <ele>771.5999755859375</ele>
        <time>2017-06-02T08:41:52.000Z</time>
        <extensions>
          <ns3:TrackPointExtension/>
        </extensions>
      </trkpt>
      <trkpt lat="42.54527977667748928070068359375" lon="2.5460944510996341705322265625">
        <ele>775.5999755859375</ele>
        <time>2017-06-02T08:41:54.000Z</time>
        <extensions>
          <ns3:TrackPointExtension/>
        </extensions>
      </trkpt>
      <trkpt lat="42.544711567461490631103515625" lon="2.54616779275238513946533203125">
        <ele>773.20001220703125</ele>
        <time>2017-06-02T08:42:07.000Z</time>
        <extensions>
          <ns3:TrackPointExtension/>
        </extensions>
      </trkpt>
      <trkpt lat="42.54449858330190181732177734375" lon="2.54622344858944416046142578125">
        <ele>770</ele>
        <time>2017-06-02T08:42:12.000Z</time>
        <extensions>
          <ns3:TrackPointExtension/>
        </extensions>
      </trkpt>
      <trkpt lat="42.54437017254531383514404296875" lon="2.54620769061148166656494140625">
        <ele>771.20001220703125</ele>
        <time>2017-06-02T08:42:15.000Z</time>
        <extensions>
          <ns3:TrackPointExtension/>
        </extensions>
      </trkpt>
      <trkpt lat="42.54421577788889408111572265625" lon="2.54608087241649627685546875">
        <ele>775.20001220703125</ele>
        <time>2017-06-02T08:42:19.000Z</time>
        <extensions>
          <ns3:TrackPointExtension/>
        </extensions>
      </trkpt>
      <trkpt lat="42.54406339488923549652099609375" lon="2.54590678028762340545654296875">
        <ele>778</ele>
        <time>2017-06-02T08:42:23.000Z</time>
        <extensions>
          <ns3:TrackPointExtension/>
        </extensions>
      </trkpt>
      <trkpt lat="42.544057779014110565185546875" lon="2.545444183051586151123046875">
        <ele>787.79998779296875</ele>
        <time>2017-06-02T08:42:31.000Z</time>
        <extensions>
          <ns3:TrackPointExtension/>
        </extensions>
      </trkpt>
      <trkpt lat="42.544023580849170684814453125" lon="2.54468880593776702880859375">
        <ele>808.4000244140625</ele>
        <time>2017-06-02T08:42:44.000Z</time>
        <extensions>
          <ns3:TrackPointExtension/>
        </extensions>
      </trkpt>
      <trkpt lat="42.5438909791409969329833984375" lon="2.544501386582851409912109375">
        <ele>808.4000244140625</ele>
        <time>2017-06-02T08:42:48.000Z</time>
        <extensions>
          <ns3:TrackPointExtension/>
        </extensions>
      </trkpt>
      <trkpt lat="42.54349744878709316253662109375" lon="2.54411741159856319427490234375">
        <ele>803.5999755859375</ele>
        <time>2017-06-02T08:42:59.000Z</time>
        <extensions>
          <ns3:TrackPointExtension/>
        </extensions>
      </trkpt>
      <trkpt lat="42.5432931818068027496337890625" lon="2.5440539605915546417236328125">
        <ele>797.5999755859375</ele>
        <time>2017-06-02T08:43:03.000Z</time>
        <extensions>
          <ns3:TrackPointExtension/>
        </extensions>
      </trkpt>
      <trkpt lat="42.54276738502085208892822265625" lon="2.543777525424957275390625">
        <ele>795.79998779296875</ele>
        <time>2017-06-02T08:43:16.000Z</time>
        <extensions>
          <ns3:TrackPointExtension/>
        </extensions>
      </trkpt>
      <trkpt lat="42.542412579059600830078125" lon="2.54351927898824214935302734375">
        <ele>797.5999755859375</ele>
        <time>2017-06-02T08:43:24.000Z</time>
        <extensions>
          <ns3:TrackPointExtension/>
        </extensions>
      </trkpt>
      <trkpt lat="42.54227519966661930084228515625" lon="2.54333068616688251495361328125">
        <ele>800.5999755859375</ele>
        <time>2017-06-02T08:43:28.000Z</time>
        <extensions>
          <ns3:TrackPointExtension/>
        </extensions>
      </trkpt>
      <trkpt lat="42.54218216054141521453857421875" lon="2.54310420714318752288818359375">
        <ele>802.20001220703125</ele>
        <time>2017-06-02T08:43:32.000Z</time>
        <extensions>
          <ns3:TrackPointExtension/>
        </extensions>
      </trkpt>
      <trkpt lat="42.5419713556766510009765625" lon="2.542369700968265533447265625">
        <ele>815</ele>
        <time>2017-06-02T08:43:45.000Z</time>
        <extensions>
          <ns3:TrackPointExtension/>
        </extensions>
      </trkpt>
      <trkpt lat="42.54176977090537548065185546875" lon="2.541795037686824798583984375">
        <ele>814.4000244140625</ele>
        <time>2017-06-02T08:43:56.000Z</time>
        <extensions>
          <ns3:TrackPointExtension/>
        </extensions>
      </trkpt>
      <trkpt lat="42.54136140458285808563232421875" lon="2.5412503816187381744384765625">
        <ele>817.20001220703125</ele>
        <time>2017-06-02T08:44:09.000Z</time>
        <extensions>
          <ns3:TrackPointExtension/>
        </extensions>
      </trkpt>
      <trkpt lat="42.541113384068012237548828125" lon="2.5405949167907238006591796875">
        <ele>826.4000244140625</ele>
        <time>2017-06-02T08:44:22.000Z</time>
        <extensions>
          <ns3:TrackPointExtension/>
        </extensions>
      </trkpt>
      <trkpt lat="42.54096762277185916900634765625" lon="2.5398682057857513427734375">
        <ele>829.5999755859375</ele>
        <time>2017-06-02T08:44:37.000Z</time>
        <extensions>
          <ns3:TrackPointExtension/>
        </extensions>
      </trkpt>
      <trkpt lat="42.541042305529117584228515625" lon="2.53967869095504283905029296875">
        <ele>833</ele>
        <time>2017-06-02T08:44:41.000Z</time>
        <extensions>
          <ns3:TrackPointExtension/>
        </extensions>
      </trkpt>
      <trkpt lat="42.54131622612476348876953125" lon="2.5390603579580783843994140625">
        <ele>849.4000244140625</ele>
        <time>2017-06-02T08:44:56.000Z</time>
        <extensions>
          <ns3:TrackPointExtension/>
        </extensions>
      </trkpt>
      <trkpt lat="42.54136643372476100921630859375" lon="2.53876120783388614654541015625">
        <ele>854</ele>
        <time>2017-06-02T08:45:01.000Z</time>
        <extensions>
          <ns3:TrackPointExtension/>
        </extensions>
      </trkpt>
      <trkpt lat="42.54119150340557098388671875" lon="2.5383053161203861236572265625">
        <ele>847.5999755859375</ele>
        <time>2017-06-02T08:45:08.000Z</time>
        <extensions>
          <ns3:TrackPointExtension/>
        </extensions>
      </trkpt>
      <trkpt lat="42.54075036384165287017822265625" lon="2.53779745660722255706787109375">
        <ele>841.79998779296875</ele>
        <time>2017-06-02T08:45:18.000Z</time>
        <extensions>
          <ns3:TrackPointExtension/>
        </extensions>
      </trkpt>
      <trkpt lat="42.54038013517856597900390625" lon="2.53726252354681491851806640625">
        <ele>843.79998779296875</ele>
        <time>2017-06-02T08:45:28.000Z</time>
        <extensions>
          <ns3:TrackPointExtension/>
        </extensions>
      </trkpt>
      <trkpt lat="42.5400037877261638641357421875" lon="2.5366969965398311614990234375">
        <ele>844.79998779296875</ele>
        <time>2017-06-02T08:45:41.000Z</time>
        <extensions>
          <ns3:TrackPointExtension/>
        </extensions>
      </trkpt>
      <trkpt lat="42.53994385711848735809326171875" lon="2.53655492328107357025146484375">
        <ele>846.20001220703125</ele>
        <time>2017-06-02T08:45:44.000Z</time>
        <extensions>
          <ns3:TrackPointExtension/>
        </extensions>
      </trkpt>
      <trkpt lat="42.539866827428340911865234375" lon="2.5361867062747478485107421875">
        <ele>852.20001220703125</ele>
        <time>2017-06-02T08:45:50.000Z</time>
        <extensions>
          <ns3:TrackPointExtension/>
        </extensions>
      </trkpt>
      <trkpt lat="42.5396309606730937957763671875" lon="2.5359017215669155120849609375">
        <ele>854</ele>
        <time>2017-06-02T08:45:57.000Z</time>
        <extensions>
          <ns3:TrackPointExtension/>
        </extensions>
      </trkpt>
      <trkpt lat="42.53935192711651325225830078125" lon="2.53574707545340061187744140625">
        <ele>852.5999755859375</ele>
        <time>2017-06-02T08:46:04.000Z</time>
        <extensions>
          <ns3:TrackPointExtension/>
        </extensions>
      </trkpt>
      <trkpt lat="42.53880660049617290496826171875" lon="2.535515315830707550048828125">
        <ele>852</ele>
        <time>2017-06-02T08:46:17.000Z</time>
        <extensions>
          <ns3:TrackPointExtension/>
        </extensions>
      </trkpt>
      <trkpt lat="42.5386449135839939117431640625" lon="2.53541515208780765533447265625">
        <ele>853.79998779296875</ele>
        <time>2017-06-02T08:46:21.000Z</time>
        <extensions>
          <ns3:TrackPointExtension/>
        </extensions>
      </trkpt>
      <trkpt lat="42.5387983024120330810546875" lon="2.53500209189951419830322265625">
        <ele>861</ele>
        <time>2017-06-02T08:46:34.000Z</time>
        <extensions>
          <ns3:TrackPointExtension/>
        </extensions>
      </trkpt>
      <trkpt lat="42.5388356857001781463623046875" lon="2.5350279919803142547607421875">
        <ele>860.79998779296875</ele>
        <time>2017-06-02T08:46:35.000Z</time>
        <extensions>
          <ns3:TrackPointExtension/>
        </extensions>
      </trkpt>
      <trkpt lat="42.53887541592121124267578125" lon="2.53504852764308452606201171875">
        <ele>860.5999755859375</ele>
        <time>2017-06-02T08:46:36.000Z</time>
        <extensions>
          <ns3:TrackPointExtension/>
        </extensions>
      </trkpt>
      <trkpt lat="42.538993097841739654541015625" lon="2.53501969389617443084716796875">
        <ele>862.20001220703125</ele>
        <time>2017-06-02T08:46:39.000Z</time>
        <extensions>
          <ns3:TrackPointExtension/>
        </extensions>
      </trkpt>
      <trkpt lat="42.53877894021570682525634765625" lon="2.5346672348678112030029296875">
        <ele>869.20001220703125</ele>
        <time>2017-06-02T08:46:48.000Z</time>
        <extensions>
          <ns3:TrackPointExtension/>
        </extensions>
      </trkpt>
      <trkpt lat="42.53824601881206035614013671875" lon="2.53448593430221080780029296875">
        <ele>869.5999755859375</ele>
        <time>2017-06-02T08:47:00.000Z</time>
        <extensions>
          <ns3:TrackPointExtension/>
        </extensions>
      </trkpt>
      <trkpt lat="42.53779943101108074188232421875" lon="2.53417915664613246917724609375">
        <ele>875.20001220703125</ele>
        <time>2017-06-02T08:47:10.000Z</time>
        <extensions>
          <ns3:TrackPointExtension/>
        </extensions>
      </trkpt>
      <trkpt lat="42.53755752928555011749267578125" lon="2.5338582135736942291259765625">
        <ele>878.79998779296875</ele>
        <time>2017-06-02T08:47:17.000Z</time>
        <extensions>
          <ns3:TrackPointExtension/>
        </extensions>
      </trkpt>
      <trkpt lat="42.537322752177715301513671875" lon="2.53318489529192447662353515625">
        <ele>888.4000244140625</ele>
        <time>2017-06-02T08:47:28.000Z</time>
        <extensions>
          <ns3:TrackPointExtension/>
        </extensions>
      </trkpt>
      <trkpt lat="42.5371549464762210845947265625" lon="2.53251585178077220916748046875">
        <ele>901.5999755859375</ele>
        <time>2017-06-02T08:47:45.000Z</time>
        <extensions>
          <ns3:TrackPointExtension/>
        </extensions>
      </trkpt>
      <trkpt lat="42.53707833588123321533203125" lon="2.53247830085456371307373046875">
        <ele>901.4000244140625</ele>
        <time>2017-06-02T08:47:47.000Z</time>
        <extensions>
          <ns3:TrackPointExtension/>
        </extensions>
      </trkpt>
      <trkpt lat="42.5367905013263225555419921875" lon="2.5327233038842678070068359375">
        <ele>895.79998779296875</ele>
        <time>2017-06-02T08:47:55.000Z</time>
        <extensions>
          <ns3:TrackPointExtension/>
        </extensions>
      </trkpt>
      <trkpt lat="42.536690421402454376220703125" lon="2.5329750962555408477783203125">
        <ele>890</ele>
        <time>2017-06-02T08:47:59.000Z</time>
        <extensions>
          <ns3:TrackPointExtension/>
        </extensions>
      </trkpt>
      <trkpt lat="42.53639261238276958465576171875" lon="2.53355436958372592926025390625">
        <ele>888.4000244140625</ele>
        <time>2017-06-02T08:48:10.000Z</time>
        <extensions>
          <ns3:TrackPointExtension/>
        </extensions>
      </trkpt>
      <trkpt lat="42.53646771423518657684326171875" lon="2.53368428908288478851318359375">
        <ele>886.5999755859375</ele>
        <time>2017-06-02T08:48:12.000Z</time>
        <extensions>
          <ns3:TrackPointExtension/>
        </extensions>
      </trkpt>
      <trkpt lat="42.53653745166957378387451171875" lon="2.5338642485439777374267578125">
        <ele>885</ele>
        <time>2017-06-02T08:48:15.000Z</time>
        <extensions>
          <ns3:TrackPointExtension/>
        </extensions>
      </trkpt>
      <trkpt lat="42.536536864936351776123046875" lon="2.5346095673739910125732421875">
        <ele>891.79998779296875</ele>
        <time>2017-06-02T08:48:26.000Z</time>
        <extensions>
          <ns3:TrackPointExtension/>
        </extensions>
      </trkpt>
      <trkpt lat="42.536715902388095855712890625" lon="2.53533367998898029327392578125">
        <ele>897</ele>
        <time>2017-06-02T08:48:38.000Z</time>
        <extensions>
          <ns3:TrackPointExtension/>
        </extensions>
      </trkpt>
      <trkpt lat="42.53685495816171169281005859375" lon="2.535513974726200103759765625">
        <ele>896.4000244140625</ele>
        <time>2017-06-02T08:48:42.000Z</time>
        <extensions>
          <ns3:TrackPointExtension/>
        </extensions>
      </trkpt>
      <trkpt lat="42.53729827702045440673828125" lon="2.53603541292250156402587890625">
        <ele>896</ele>
        <time>2017-06-02T08:48:51.000Z</time>
        <extensions>
          <ns3:TrackPointExtension/>
        </extensions>
      </trkpt>
      <trkpt lat="42.53775651566684246063232421875" lon="2.5365065596997737884521484375">
        <ele>895.20001220703125</ele>
        <time>2017-06-02T08:49:01.000Z</time>
        <extensions>
          <ns3:TrackPointExtension/>
        </extensions>
      </trkpt>
      <trkpt lat="42.538089193403720855712890625" lon="2.53679632209241390228271484375">
        <ele>890.79998779296875</ele>
        <time>2017-06-02T08:49:10.000Z</time>
        <extensions>
          <ns3:TrackPointExtension/>
        </extensions>
      </trkpt>
      <trkpt lat="42.53822020255029201507568359375" lon="2.5370067916810512542724609375">
        <ele>893.5999755859375</ele>
        <time>2017-06-02T08:49:15.000Z</time>
        <extensions>
          <ns3:TrackPointExtension/>
        </extensions>
      </trkpt>
      <trkpt lat="42.53850384615361690521240234375" lon="2.53764264285564422607421875">
        <ele>904</ele>
        <time>2017-06-02T08:49:29.000Z</time>
        <extensions>
          <ns3:TrackPointExtension/>
        </extensions>
      </trkpt>
      <trkpt lat="42.53873300738632678985595703125" lon="2.5382996164262294769287109375">
        <ele>909.20001220703125</ele>
        <time>2017-06-02T08:49:42.000Z</time>
        <extensions>
          <ns3:TrackPointExtension/>
        </extensions>
      </trkpt>
      <trkpt lat="42.53875580616295337677001953125" lon="2.53836876712739467620849609375">
        <ele>909.5999755859375</ele>
        <time>2017-06-02T08:49:43.000Z</time>
        <extensions>
          <ns3:TrackPointExtension/>
        </extensions>
      </trkpt>
      <trkpt lat="42.53896770067512989044189453125" lon="2.5389508903026580810546875">
        <ele>909.5999755859375</ele>
        <time>2017-06-02T08:49:51.000Z</time>
        <extensions>
          <ns3:TrackPointExtension/>
        </extensions>
      </trkpt>
      <trkpt lat="42.5389483384788036346435546875" lon="2.53944684751331806182861328125">
        <ele>913.4000244140625</ele>
        <time>2017-06-02T08:49:56.000Z</time>
        <extensions>
          <ns3:TrackPointExtension/>
        </extensions>
      </trkpt>
      <trkpt lat="42.53892545588314533233642578125" lon="2.54016618244349956512451171875">
        <ele>916.4000244140625</ele>
        <time>2017-06-02T08:50:03.000Z</time>
        <extensions>
          <ns3:TrackPointExtension/>
        </extensions>
      </trkpt>
      <trkpt lat="42.5390425510704517364501953125" lon="2.5409134291112422943115234375">
        <ele>907.20001220703125</ele>
        <time>2017-06-02T08:50:11.000Z</time>
        <extensions>
          <ns3:TrackPointExtension/>
        </extensions>
      </trkpt>
      <trkpt lat="42.53905805759131908416748046875" lon="2.54123001359403133392333984375">
        <ele>904.20001220703125</ele>
        <time>2017-06-02T08:50:14.000Z</time>
        <extensions>
          <ns3:TrackPointExtension/>
        </extensions>
      </trkpt>
      <trkpt lat="42.5388993881642818450927734375" lon="2.54168380983173847198486328125">
        <ele>907.5999755859375</ele>
        <time>2017-06-02T08:50:19.000Z</time>
        <extensions>
          <ns3:TrackPointExtension/>
        </extensions>
      </trkpt>
      <trkpt lat="42.53877642564475536346435546875" lon="2.5420376099646091461181640625">
        <ele>916.20001220703125</ele>
        <time>2017-06-02T08:50:23.000Z</time>
        <extensions>
          <ns3:TrackPointExtension/>
        </extensions>
      </trkpt>
      <trkpt lat="42.53875412978231906890869140625" lon="2.54246567375957965850830078125">
        <ele>919.4000244140625</ele>
        <time>2017-06-02T08:50:28.000Z</time>
        <extensions>
          <ns3:TrackPointExtension/>
        </extensions>
      </trkpt>
      <trkpt lat="42.5388504378497600555419921875" lon="2.54259140230715274810791015625">
        <ele>916.79998779296875</ele>
        <time>2017-06-02T08:50:30.000Z</time>
        <extensions>
          <ns3:TrackPointExtension/>
        </extensions>
      </trkpt>
      <trkpt lat="42.53935561515390872955322265625" lon="2.54306900314986705780029296875">
        <ele>900.79998779296875</ele>
        <time>2017-06-02T08:50:38.000Z</time>
        <extensions>
          <ns3:TrackPointExtension/>
        </extensions>
      </trkpt>
      <trkpt lat="42.53973833285272121429443359375" lon="2.5436509586870670318603515625">
        <ele>889.20001220703125</ele>
        <time>2017-06-02T08:50:46.000Z</time>
        <extensions>
          <ns3:TrackPointExtension/>
        </extensions>
      </trkpt>
      <trkpt lat="42.54012775607407093048095703125" lon="2.5442004762589931488037109375">
        <ele>874.5999755859375</ele>
        <time>2017-06-02T08:50:54.000Z</time>
        <extensions>
          <ns3:TrackPointExtension/>
        </extensions>
      </trkpt>
      <trkpt lat="42.54024728201329708099365234375" lon="2.5443206727504730224609375">
        <ele>867.79998779296875</ele>
        <time>2017-06-02T08:50:57.000Z</time>
        <extensions>
          <ns3:TrackPointExtension/>
        </extensions>
      </trkpt>
      <trkpt lat="42.5402307696640491485595703125" lon="2.54461714066565036773681640625">
        <ele>867.5999755859375</ele>
        <time>2017-06-02T08:51:03.000Z</time>
        <extensions>
          <ns3:TrackPointExtension/>
        </extensions>
      </trkpt>
      <trkpt lat="42.54000621847808361053466796875" lon="2.54505987279117107391357421875">
        <ele>872.5999755859375</ele>
        <time>2017-06-02T08:51:10.000Z</time>
        <extensions>
          <ns3:TrackPointExtension/>
        </extensions>
      </trkpt>
      <trkpt lat="42.53979331813752651214599609375" lon="2.54510731436312198638916015625">
        <ele>871.79998779296875</ele>
        <time>2017-06-02T08:51:14.000Z</time>
        <extensions>
          <ns3:TrackPointExtension/>
        </extensions>
      </trkpt>
      <trkpt lat="42.539298534393310546875" lon="2.5451563484966754913330078125">
        <ele>873</ele>
        <time>2017-06-02T08:51:22.000Z</time>
        <extensions>
          <ns3:TrackPointExtension/>
        </extensions>
      </trkpt>
      <trkpt lat="42.53871850669384002685546875" lon="2.54498946480453014373779296875">
        <ele>870.79998779296875</ele>
        <time>2017-06-02T08:51:31.000Z</time>
        <extensions>
          <ns3:TrackPointExtension/>
        </extensions>
      </trkpt>
      <trkpt lat="42.53812464885413646697998046875" lon="2.54484663717448711395263671875">
        <ele>869.79998779296875</ele>
        <time>2017-06-02T08:51:39.000Z</time>
        <extensions>
          <ns3:TrackPointExtension/>
        </extensions>
      </trkpt>
      <trkpt lat="42.5377495586872100830078125" lon="2.54487966187298297882080078125">
        <ele>870.20001220703125</ele>
        <time>2017-06-02T08:51:44.000Z</time>
        <extensions>
          <ns3:TrackPointExtension/>
        </extensions>
      </trkpt>
      <trkpt lat="42.53719777800142765045166015625" lon="2.5451711006462574005126953125">
        <ele>867.79998779296875</ele>
        <time>2017-06-02T08:51:52.000Z</time>
        <extensions>
          <ns3:TrackPointExtension/>
        </extensions>
      </trkpt>
      <trkpt lat="42.5371433794498443603515625" lon="2.54524159245193004608154296875">
        <ele>867</ele>
        <time>2017-06-02T08:51:53.000Z</time>
        <extensions>
          <ns3:TrackPointExtension/>
        </extensions>
      </trkpt>
      <trkpt lat="42.5369956903159618377685546875" lon="2.54564157687127590179443359375">
        <ele>857.5999755859375</ele>
        <time>2017-06-02T08:51:57.000Z</time>
        <extensions>
          <ns3:TrackPointExtension/>
        </extensions>
      </trkpt>
      <trkpt lat="42.53692209720611572265625" lon="2.545845508575439453125">
        <ele>852.20001220703125</ele>
        <time>2017-06-02T08:51:59.000Z</time>
        <extensions>
          <ns3:TrackPointExtension/>
        </extensions>
      </trkpt>
      <trkpt lat="42.53656159155070781707763671875" lon="2.54617466591298580169677734375">
        <ele>858.5999755859375</ele>
        <time>2017-06-02T08:52:04.000Z</time>
        <extensions>
          <ns3:TrackPointExtension/>
        </extensions>
      </trkpt>
      <trkpt lat="42.53617174923419952392578125" lon="2.54632906056940555572509765625">
        <ele>867.4000244140625</ele>
        <time>2017-06-02T08:52:09.000Z</time>
        <extensions>
          <ns3:TrackPointExtension/>
        </extensions>
      </trkpt>
      <trkpt lat="42.5360461883246898651123046875" lon="2.54630709998309612274169921875">
        <ele>871</ele>
        <time>2017-06-02T08:52:11.000Z</time>
        <extensions>
          <ns3:TrackPointExtension/>
        </extensions>
      </trkpt>
      <trkpt lat="42.536098659038543701171875" lon="2.54664522595703601837158203125">
        <ele>877</ele>
        <time>2017-06-02T08:52:18.000Z</time>
        <extensions>
          <ns3:TrackPointExtension/>
        </extensions>
      </trkpt>
      <trkpt lat="42.53645698539912700653076171875" lon="2.54730203188955783843994140625">
        <ele>906.4000244140625</ele>
        <time>2017-06-02T08:52:27.000Z</time>
        <extensions>
          <ns3:TrackPointExtension/>
        </extensions>
      </trkpt>
      <trkpt lat="42.5366176664829254150390625" lon="2.54754795692861080169677734375">
        <ele>915.5999755859375</ele>
        <time>2017-06-02T08:52:31.000Z</time>
        <extensions>
          <ns3:TrackPointExtension/>
        </extensions>
      </trkpt>
      <trkpt lat="42.53685277886688709259033203125" lon="2.5475331209599971771240234375">
        <ele>912.20001220703125</ele>
        <time>2017-06-02T08:52:35.000Z</time>
        <extensions>
          <ns3:TrackPointExtension/>
        </extensions>
      </trkpt>
      <trkpt lat="42.5373976863920688629150390625" lon="2.54724838770925998687744140625">
        <ele>889.5999755859375</ele>
        <time>2017-06-02T08:52:42.000Z</time>
        <extensions>
          <ns3:TrackPointExtension/>
        </extensions>
      </trkpt>
      <trkpt lat="42.537909485399723052978515625" lon="2.5470281951129436492919921875">
        <ele>866.79998779296875</ele>
        <time>2017-06-02T08:52:49.000Z</time>
        <extensions>
          <ns3:TrackPointExtension/>
        </extensions>
      </trkpt>
      <trkpt lat="42.53829379566013813018798828125" lon="2.547111846506595611572265625">
        <ele>867</ele>
        <time>2017-06-02T08:52:55.000Z</time>
        <extensions>
          <ns3:TrackPointExtension/>
        </extensions>
      </trkpt>
      <trkpt lat="42.53877005539834499359130859375" lon="2.54747025668621063232421875">
        <ele>874.4000244140625</ele>
        <time>2017-06-02T08:53:05.000Z</time>
        <extensions>
          <ns3:TrackPointExtension/>
        </extensions>
      </trkpt>
      <trkpt lat="42.53935209475457668304443359375" lon="2.54764585755765438079833984375">
        <ele>877</ele>
        <time>2017-06-02T08:53:18.000Z</time>
        <extensions>
          <ns3:TrackPointExtension/>
        </extensions>
      </trkpt>
      <trkpt lat="42.53979432396590709686279296875" lon="2.54771207459270954132080078125">
        <ele>875.5999755859375</ele>
        <time>2017-06-02T08:53:25.000Z</time>
        <extensions>
          <ns3:TrackPointExtension/>
        </extensions>
      </trkpt>
      <trkpt lat="42.540369071066379547119140625" lon="2.54791726358234882354736328125">
        <ele>881.5999755859375</ele>
        <time>2017-06-02T08:53:35.000Z</time>
        <extensions>
          <ns3:TrackPointExtension/>
        </extensions>
      </trkpt>
      <trkpt lat="42.54090727306902408599853515625" lon="2.5480571575462818145751953125">
        <ele>888.79998779296875</ele>
        <time>2017-06-02T08:53:44.000Z</time>
        <extensions>
          <ns3:TrackPointExtension/>
        </extensions>
      </trkpt>
      <trkpt lat="42.54148964770138263702392578125" lon="2.54804835654795169830322265625">
        <ele>892.79998779296875</ele>
        <time>2017-06-02T08:53:53.000Z</time>
        <extensions>
          <ns3:TrackPointExtension/>
        </extensions>
      </trkpt>
      <trkpt lat="42.5420154444873332977294921875" lon="2.54800141789019107818603515625">
        <ele>886</ele>
        <time>2017-06-02T08:54:02.000Z</time>
        <extensions>
          <ns3:TrackPointExtension/>
        </extensions>
      </trkpt>
      <trkpt lat="42.5424992479383945465087890625" lon="2.54815966822206974029541015625">
        <ele>885.5999755859375</ele>
        <time>2017-06-02T08:54:12.000Z</time>
        <extensions>
          <ns3:TrackPointExtension/>
        </extensions>
      </trkpt>
      <trkpt lat="42.54243428818881511688232421875" lon="2.5488799251616001129150390625">
        <ele>892.20001220703125</ele>
        <time>2017-06-02T08:54:25.000Z</time>
        <extensions>
          <ns3:TrackPointExtension/>
        </extensions>
      </trkpt>
      <trkpt lat="42.54209448583424091339111328125" lon="2.54952013492584228515625">
        <ele>898.4000244140625</ele>
        <time>2017-06-02T08:54:36.000Z</time>
        <extensions>
          <ns3:TrackPointExtension/>
        </extensions>
      </trkpt>
      <trkpt lat="42.5416333973407745361328125" lon="2.5499632023274898529052734375">
        <ele>909.5999755859375</ele>
        <time>2017-06-02T08:54:46.000Z</time>
        <extensions>
          <ns3:TrackPointExtension/>
        </extensions>
      </trkpt>
      <trkpt lat="42.541138194501399993896484375" lon="2.55027475766837596893310546875">
        <ele>920.5999755859375</ele>
        <time>2017-06-02T08:54:56.000Z</time>
        <extensions>
          <ns3:TrackPointExtension/>
        </extensions>
      </trkpt>
      <trkpt lat="42.54059848375618457794189453125" lon="2.55054549314081668853759765625">
        <ele>923.5999755859375</ele>
        <time>2017-06-02T08:55:08.000Z</time>
        <extensions>
          <ns3:TrackPointExtension/>
        </extensions>
      </trkpt>
      <trkpt lat="42.5400812365114688873291015625" lon="2.55079778842628002166748046875">
        <ele>932</ele>
        <time>2017-06-02T08:55:18.000Z</time>
        <extensions>
          <ns3:TrackPointExtension/>
        </extensions>
      </trkpt>
      <trkpt lat="42.5396376661956310272216796875" lon="2.55123071372509002685546875">
        <ele>931.4000244140625</ele>
        <time>2017-06-02T08:55:29.000Z</time>
        <extensions>
          <ns3:TrackPointExtension/>
        </extensions>
      </trkpt>
      <trkpt lat="42.539176158607006072998046875" lon="2.5516607053577899932861328125">
        <ele>941.20001220703125</ele>
        <time>2017-06-02T08:55:41.000Z</time>
        <extensions>
          <ns3:TrackPointExtension/>
        </extensions>
      </trkpt>
      <trkpt lat="42.53906208090484142303466796875" lon="2.5519919581711292266845703125">
        <ele>941</ele>
        <time>2017-06-02T08:55:46.000Z</time>
        <extensions>
          <ns3:TrackPointExtension/>
        </extensions>
      </trkpt>
      <trkpt lat="42.53890517167747020721435546875" lon="2.552706263959407806396484375">
        <ele>936.20001220703125</ele>
        <time>2017-06-02T08:55:57.000Z</time>
        <extensions>
          <ns3:TrackPointExtension/>
        </extensions>
      </trkpt>
      <trkpt lat="42.538791932165622711181640625" lon="2.55302988924086093902587890625">
        <ele>935</ele>
        <time>2017-06-02T08:56:02.000Z</time>
        <extensions>
          <ns3:TrackPointExtension/>
        </extensions>
      </trkpt>
      <trkpt lat="42.538533098995685577392578125" lon="2.55330163054168224334716796875">
        <ele>938.4000244140625</ele>
        <time>2017-06-02T08:56:08.000Z</time>
        <extensions>
          <ns3:TrackPointExtension/>
        </extensions>
      </trkpt>
      <trkpt lat="42.53801417537033557891845703125" lon="2.5535573624074459075927734375">
        <ele>949.20001220703125</ele>
        <time>2017-06-02T08:56:18.000Z</time>
        <extensions>
          <ns3:TrackPointExtension/>
        </extensions>
      </trkpt>
      <trkpt lat="42.53747706301510334014892578125" lon="2.5537769682705402374267578125">
        <ele>959.4000244140625</ele>
        <time>2017-06-02T08:56:29.000Z</time>
        <extensions>
          <ns3:TrackPointExtension/>
        </extensions>
      </trkpt>
      <trkpt lat="42.5369504280388355255126953125" lon="2.55394603125751018524169921875">
        <ele>969.5999755859375</ele>
        <time>2017-06-02T08:56:40.000Z</time>
        <extensions>
          <ns3:TrackPointExtension/>
        </extensions>
      </trkpt>
      <trkpt lat="42.536885552108287811279296875" lon="2.55419782362878322601318359375">
        <ele>965.79998779296875</ele>
        <time>2017-06-02T08:56:51.000Z</time>
        <extensions>
          <ns3:TrackPointExtension/>
        </extensions>
      </trkpt>
      <trkpt lat="42.537300288677215576171875" lon="2.554748095571994781494140625">
        <ele>953.20001220703125</ele>
        <time>2017-06-02T08:57:07.000Z</time>
        <extensions>
          <ns3:TrackPointExtension/>
        </extensions>
      </trkpt>
      <trkpt lat="42.537420652806758880615234375" lon="2.55520566366612911224365234375">
        <ele>951.4000244140625</ele>
        <time>2017-06-02T08:57:15.000Z</time>
        <extensions>
          <ns3:TrackPointExtension/>
        </extensions>
      </trkpt>
      <trkpt lat="42.53732752986252307891845703125" lon="2.5555214099586009979248046875">
        <ele>956.5999755859375</ele>
        <time>2017-06-02T08:57:20.000Z</time>
        <extensions>
          <ns3:TrackPointExtension/>
        </extensions>
      </trkpt>
      <trkpt lat="42.5370339117944240570068359375" lon="2.556196153163909912109375">
        <ele>966.79998779296875</ele>
        <time>2017-06-02T08:57:31.000Z</time>
        <extensions>
          <ns3:TrackPointExtension/>
        </extensions>
      </trkpt>
      <trkpt lat="42.53662764094769954681396484375" lon="2.5567227043211460113525390625">
        <ele>972.5999755859375</ele>
        <time>2017-06-02T08:57:41.000Z</time>
        <extensions>
          <ns3:TrackPointExtension/>
        </extensions>
      </trkpt>
      <trkpt lat="42.53642446361482143402099609375" lon="2.55693887360394001007080078125">
        <ele>979.20001220703125</ele>
        <time>2017-06-02T08:57:45.000Z</time>
        <extensions>
          <ns3:TrackPointExtension/>
        </extensions>
      </trkpt>
      <trkpt lat="42.536107040941715240478515625" lon="2.5576297938823699951171875">
        <ele>986.5999755859375</ele>
        <time>2017-06-02T08:57:54.000Z</time>
        <extensions>
          <ns3:TrackPointExtension/>
        </extensions>
      </trkpt>
      <trkpt lat="42.53583286888897418975830078125" lon="2.5583072192966938018798828125">
        <ele>994</ele>
        <time>2017-06-02T08:58:04.000Z</time>
        <extensions>
          <ns3:TrackPointExtension/>
        </extensions>
      </trkpt>
      <trkpt lat="42.5355037115514278411865234375" lon="2.55882279016077518463134765625">
        <ele>996</ele>
        <time>2017-06-02T08:58:13.000Z</time>
        <extensions>
          <ns3:TrackPointExtension/>
        </extensions>
      </trkpt>
      <trkpt lat="42.535010688006877899169921875" lon="2.5591380335390567779541015625">
        <ele>1010.20001220703125</ele>
        <time>2017-06-02T08:58:25.000Z</time>
        <extensions>
          <ns3:TrackPointExtension/>
        </extensions>
      </trkpt>
      <trkpt lat="42.53498428501188755035400390625" lon="2.55918002687394618988037109375">
        <ele>1009.79998779296875</ele>
        <time>2017-06-02T08:58:26.000Z</time>
        <extensions>
          <ns3:TrackPointExtension/>
        </extensions>
      </trkpt>
      <trkpt lat="42.53465470857918262481689453125" lon="2.5597683526575565338134765625">
        <ele>998.4000244140625</ele>
        <time>2017-06-02T08:58:37.000Z</time>
        <extensions>
          <ns3:TrackPointExtension/>
        </extensions>
      </trkpt>
      <trkpt lat="42.53414860926568508148193359375" lon="2.5600952468812465667724609375">
        <ele>1007.79998779296875</ele>
        <time>2017-06-02T08:58:48.000Z</time>
        <extensions>
          <ns3:TrackPointExtension/>
        </extensions>
      </trkpt>
      <trkpt lat="42.5335983373224735260009765625" lon="2.56023933179676532745361328125">
        <ele>1016.79998779296875</ele>
        <time>2017-06-02T08:58:59.000Z</time>
        <extensions>
          <ns3:TrackPointExtension/>
        </extensions>
      </trkpt>
      <trkpt lat="42.5335557572543621063232421875" lon="2.5602360628545284271240234375">
        <ele>1018.20001220703125</ele>
        <time>2017-06-02T08:59:00.000Z</time>
        <extensions>
          <ns3:TrackPointExtension/>
        </extensions>
      </trkpt>
      <trkpt lat="42.53350965678691864013671875" lon="2.56024905480444431304931640625">
        <ele>1019.79998779296875</ele>
        <time>2017-06-02T08:59:02.000Z</time>
        <extensions>
          <ns3:TrackPointExtension/>
        </extensions>
      </trkpt>
      <trkpt lat="42.53355391323566436767578125" lon="2.5604848377406597137451171875">
        <ele>1014</ele>
        <time>2017-06-02T08:59:06.000Z</time>
        <extensions>
          <ns3:TrackPointExtension/>
        </extensions>
      </trkpt>
      <trkpt lat="42.53377594985067844390869140625" lon="2.561184056103229522705078125">
        <ele>997.79998779296875</ele>
        <time>2017-06-02T08:59:16.000Z</time>
        <extensions>
          <ns3:TrackPointExtension/>
        </extensions>
      </trkpt>
      <trkpt lat="42.53392380662262439727783203125" lon="2.561785876750946044921875">
        <ele>993.5999755859375</ele>
        <time>2017-06-02T08:59:25.000Z</time>
        <extensions>
          <ns3:TrackPointExtension/>
        </extensions>
      </trkpt>
      <trkpt lat="42.5339195318520069122314453125" lon="2.56201855838298797607421875">
        <ele>994</ele>
        <time>2017-06-02T08:59:28.000Z</time>
        <extensions>
          <ns3:TrackPointExtension/>
        </extensions>
      </trkpt>
      <trkpt lat="42.53364418633282184600830078125" lon="2.56266362965106964111328125">
        <ele>1007.20001220703125</ele>
        <time>2017-06-02T08:59:37.000Z</time>
        <extensions>
          <ns3:TrackPointExtension/>
        </extensions>
      </trkpt>
      <trkpt lat="42.53348845057189464569091796875" lon="2.56272624246776103973388671875">
        <ele>1013.5999755859375</ele>
        <time>2017-06-02T08:59:40.000Z</time>
        <extensions>
          <ns3:TrackPointExtension/>
        </extensions>
      </trkpt>
      <trkpt lat="42.5331450439989566802978515625" lon="2.56283503957092761993408203125">
        <ele>1023.79998779296875</ele>
        <time>2017-06-02T08:59:46.000Z</time>
        <extensions>
          <ns3:TrackPointExtension/>
        </extensions>
      </trkpt>
      <trkpt lat="42.53266450949013233184814453125" lon="2.56326100789010524749755859375">
        <ele>1025.4000244140625</ele>
        <time>2017-06-02T08:59:55.000Z</time>
        <extensions>
          <ns3:TrackPointExtension/>
        </extensions>
      </trkpt>
      <trkpt lat="42.53215371631085872650146484375" lon="2.56363199092447757720947265625">
        <ele>1030.5999755859375</ele>
        <time>2017-06-02T09:00:05.000Z</time>
        <extensions>
          <ns3:TrackPointExtension/>
        </extensions>
      </trkpt>
      <trkpt lat="42.5316238962113857269287109375" lon="2.56378437392413616180419921875">
        <ele>1036.800048828125</ele>
        <time>2017-06-02T09:00:15.000Z</time>
        <extensions>
          <ns3:TrackPointExtension/>
        </extensions>
      </trkpt>
      <trkpt lat="42.5310710258781909942626953125" lon="2.5638295523822307586669921875">
        <ele>1040.4000244140625</ele>
        <time>2017-06-02T09:00:26.000Z</time>
        <extensions>
          <ns3:TrackPointExtension/>
        </extensions>
      </trkpt>
      <trkpt lat="42.530975639820098876953125" lon="2.56379594095051288604736328125">
        <ele>1042.5999755859375</ele>
        <time>2017-06-02T09:00:28.000Z</time>
        <extensions>
          <ns3:TrackPointExtension/>
        </extensions>
      </trkpt>
      <trkpt lat="42.5310120172798633575439453125" lon="2.5641423650085926055908203125">
        <ele>1035.800048828125</ele>
        <time>2017-06-02T09:00:35.000Z</time>
        <extensions>
          <ns3:TrackPointExtension/>
        </extensions>
      </trkpt>
      <trkpt lat="42.5314153544604778289794921875" lon="2.56470252759754657745361328125">
        <ele>1034.5999755859375</ele>
        <time>2017-06-02T09:00:45.000Z</time>
        <extensions>
          <ns3:TrackPointExtension/>
        </extensions>
      </trkpt>
      <trkpt lat="42.53150847740471363067626953125" lon="2.56477511487901210784912109375">
        <ele>1034</ele>
        <time>2017-06-02T09:00:47.000Z</time>
        <extensions>
          <ns3:TrackPointExtension/>
        </extensions>
      </trkpt>
      <trkpt lat="42.5320272333920001983642578125" lon="2.56514710374176502227783203125">
        <ele>1036.4000244140625</ele>
        <time>2017-06-02T09:00:57.000Z</time>
        <extensions>
          <ns3:TrackPointExtension/>
        </extensions>
      </trkpt>
      <trkpt lat="42.5325888209044933319091796875" lon="2.56537735462188720703125">
        <ele>1041.199951171875</ele>
        <time>2017-06-02T09:01:07.000Z</time>
        <extensions>
          <ns3:TrackPointExtension/>
        </extensions>
      </trkpt>
      <trkpt lat="42.53287808038294315338134765625" lon="2.56541381590068340301513671875">
        <ele>1040.199951171875</ele>
        <time>2017-06-02T09:01:11.000Z</time>
        <extensions>
          <ns3:TrackPointExtension/>
        </extensions>
      </trkpt>
      <trkpt lat="42.5333918072283267974853515625" lon="2.565328739583492279052734375">
        <ele>1035</ele>
        <time>2017-06-02T09:01:19.000Z</time>
        <extensions>
          <ns3:TrackPointExtension/>
        </extensions>
      </trkpt>
      <trkpt lat="42.53393612802028656005859375" lon="2.5654201023280620574951171875">
        <ele>1032.199951171875</ele>
        <time>2017-06-02T09:01:28.000Z</time>
        <extensions>
          <ns3:TrackPointExtension/>
        </extensions>
      </trkpt>
      <trkpt lat="42.53452814184129238128662109375" lon="2.5655243732035160064697265625">
        <ele>1029.5999755859375</ele>
        <time>2017-06-02T09:01:37.000Z</time>
        <extensions>
          <ns3:TrackPointExtension/>
        </extensions>
      </trkpt>
      <trkpt lat="42.53508402965962886810302734375" lon="2.56563761271536350250244140625">
        <ele>1029.4000244140625</ele>
        <time>2017-06-02T09:01:47.000Z</time>
        <extensions>
          <ns3:TrackPointExtension/>
        </extensions>
      </trkpt>
      <trkpt lat="42.5352700240910053253173828125" lon="2.565715312957763671875">
        <ele>1031.4000244140625</ele>
        <time>2017-06-02T09:01:53.000Z</time>
        <extensions>
          <ns3:TrackPointExtension/>
        </extensions>
      </trkpt>
      <trkpt lat="42.5353588722646236419677734375" lon="2.56580659188330173492431640625">
        <ele>1033.5999755859375</ele>
        <time>2017-06-02T09:01:59.000Z</time>
        <extensions>
          <ns3:TrackPointExtension/>
        </extensions>
      </trkpt>
      <trkpt lat="42.53535828553140163421630859375" lon="2.56580307148396968841552734375">
        <ele>1033.4000244140625</ele>
        <time>2017-06-02T09:02:01.000Z</time>
        <extensions>
          <ns3:TrackPointExtension/>
        </extensions>
      </trkpt>
    </trkseg>
  </trk>
</gpx>
